Flight Track Log - Related Links

Times and Time Zones

All times are in EDT time to prevent confusion due to time zone crossing. See the THY34 flight status page for this flight to view local times or setup timezone preferences in your user account.

Time Position Orientation Groundspeed Altitude Reporting Facility
EDT Latitude Longitude Course Direction KTS MPH feet Rate Location/Type
Sun 11:28:37 PM 29.9777 -95.2977 180° South 182 209 700  Level FlightAware ADS-B
Sun 11:28:46 PM 29.9781 -95.2885 87° East 185 213 1,100 2,769 Climbing FlightAware ADS-B
Sun 11:28:50 PM 29.9786 -95.2845 82° East 187 215 1,300 2,571 Climbing FlightAware ADS-B
Sun 11:28:53 PM 29.9793 -95.2816 74° East 191 220 1,400 1,714 Climbing FlightAware ADS-B
Sun 11:28:57 PM 29.9805 -95.2782 68° East 195 224 1,500 1,500 Climbing FlightAware ADS-B
Sun 11:29:01 PM 29.9826 -95.2741 59° Northeast 202 232 1,600 750 Climbing FlightAware ADS-B
Sun 11:29:05 PM 29.9849 -95.2710 49° Northeast 206 237 1,600 750 Level FlightAware ADS-B
Sun 11:29:09 PM 29.9875 -95.2682 43° Northeast 213 245 1,700 750 Climbing FlightAware ADS-B
Sun 11:29:13 PM 29.9913 -95.2653 33° Northeast 220 253 1,700 545 Level FlightAware ADS-B
Sun 11:29:20 PM 29.9979 -95.2616 26° Northeast 229 264 1,800 1,043 Climbing FlightAware ADS-B
Sun 11:29:36 PM 30.0140 -95.2544 21° North 250 288 2,100 968 Climbing FlightAware ADS-B
Sun 11:29:51 PM 30.0315 -95.2467 21° North 268 308 2,300 1,286 Climbing FlightAware ADS-B
Sun 11:30:04 PM 30.0477 -95.2397 21° North 279 321 2,700 1,750 Climbing FlightAware ADS-B
Sun 11:30:15 PM 30.0607 -95.2363 13° North 286 329 3,000 1,875 Climbing FlightAware ADS-B
Sun 11:30:20 PM 30.0674 -95.2361 North 288 331 3,200 2,571 Climbing FlightAware ADS-B
Sun 11:30:29 PM 30.0800 -95.2373 355° North 291 335 3,600 1,920 Climbing FlightAware ADS-B
Sun 11:30:45 PM 30.1015 -95.2409 352° North 293 337 4,000 500 Climbing FlightAware ADS-B
Sun 11:31:17 PM 30.1439 -95.2475 352° North 292 336 4,000  Level FlightAware ADS-B
Sun 11:31:33 PM 30.1657 -95.2503 356° North 292 336 4,000 214 Level FlightAware ADS-B
Sun 11:31:45 PM 30.1825 -95.2492 North 294 338 4,100 1,500 Climbing FlightAware ADS-B
Sun 11:32:01 PM 30.2036 -95.2442 12° North 295 339 4,700 2,514 Climbing FlightAware ADS-B
Sun 11:32:59 PM 30.2808 -95.2242 17° North 294 338 7,200 2,494 Climbing FlightAware ADS-B
Sun 11:33:30 PM 30.3202 -95.2091 18° North 296 341 8,400 2,323 Climbing FlightAware ADS-B
Sun 11:34:01 PM 30.3613 -95.1938 18° North 299 344 9,600 2,262 Climbing FlightAware ADS-B
Sun 11:34:31 PM 30.4012 -95.1790 18° North 307 353 10,700 1,684 Climbing FlightAware ADS-B
Sun 11:34:58 PM 30.4395 -95.1643 18° North 334 384 11,200 1,227 Climbing FlightAware ADS-B
Sun 11:35:15 PM 30.4641 -95.1519 23° Northeast 350 403 11,600 2,188 Climbing FlightAware ADS-B
Sun 11:37:48 PM 30.7043 -95.0030 28° Northeast 393 452 17,400 2,230 Climbing FlightAware ADS-B
Sun 11:38:18 PM 30.7528 -94.9729 28° Northeast 400 460 18,400 1,900 Climbing FlightAware ADS-B
Sun 11:38:48 PM 30.8026 -94.9420 28° Northeast 406 467 19,300 1,672 Climbing FlightAware ADS-B
Sun 11:39:19 PM 30.8545 -94.9097 28° Northeast 417 480 20,100 1,731 Climbing FlightAware ADS-B
Sun 11:41:24 PM 31.0726 -94.7732 28° Northeast 436 502 23,800 1,709 Climbing FlightAware ADS-B
Sun 11:41:57 PM 31.1332 -94.7353 28° Northeast 442 509 24,600 1,404 Climbing FlightAware ADS-B
Sun 11:42:58 PM 31.2409 -94.6635 31° Northeast 452 520 26,000 1,220 Climbing FlightAware ADS-B
Sun 11:44:00 PM 31.3556 -94.5830 31° Northeast 472 543 27,100 1,161 Climbing FlightAware ADS-B
Sun 11:44:31 PM 31.4140 -94.5425 31° Northeast 476 548 27,800 1,355 Climbing FlightAware ADS-B
Sun 11:45:02 PM 31.4733 -94.5014 31° Northeast 482 555 28,500 1,258 Climbing FlightAware ADS-B
Sun 11:45:33 PM 31.5324 -94.4604 31° Northeast 487 560 29,100 1,245 Climbing FlightAware ADS-B
Sun 11:47:41 PM 31.7854 -94.2843 31° Northeast 497 572 31,800 1,212 Climbing FlightAware ADS-B
Sun 11:48:46 PM 31.9142 -94.1940 31° Northeast 499 574 33,000 431 Climbing FlightAware ADS-B
Sun 11:50:28 PM 32.1120 -94.0550 31° Northeast 487 560 33,000  Level FlightAware ADS-B
Sun 11:51:13 PM 32.1870 -94.0030 30° Northeast 487 560 33,000  Level FlightAware ADS-B
Sun 11:51:49 PM 32.2470 -93.9630 29° Northeast 487 560 33,000  Level FlightAware ADS-B
Sun 11:52:25 PM 32.3060 -93.9220 30° Northeast 487 560 33,000  Level FlightAware ADS-B
Sun 11:52:56 PM 32.3994 -93.8514 33° Northeast 485 558 33,000  Level FlightAware ADS-B
Sun 11:58:24 PM 33.0350 -93.3955 31° Northeast 502 578 33,000  Level FlightAware ADS-B
Sun 11:59:12 PM 33.1280 -93.3280 31° Northeast 501 577 33,000  Level FlightAware ADS-B
Sun 11:59:59 PM 33.2120 -93.2680 31° Northeast 503 579 33,000  Level FlightAware ADS-B
Mon 12:00:47 AM 33.2930 -93.2090 31° Northeast 503 579 33,000  Level FlightAware ADS-B
Mon 12:01:21 AM 33.3510 -93.1680 31° Northeast 503 579 33,000  Level FlightAware ADS-B
Mon 12:02:09 AM 33.4320 -93.1090 31° Northeast 503 579 33,000  Level FlightAware ADS-B
Mon 12:02:45 AM 33.4930 -93.0650 31° Northeast 503 579 33,000  Level FlightAware ADS-B
Mon 12:03:21 AM 33.5540 -93.0210 31° Northeast 503 579 33,000  Level FlightAware ADS-B
Mon 12:04:09 AM 33.6360 -92.9630 30° Northeast 503 579 33,000  Level FlightAware ADS-B
Mon 12:04:45 AM 33.6970 -92.9190 31° Northeast 503 579 33,000  Level FlightAware ADS-B
Mon 12:05:33 AM 33.7780 -92.8600 31° Northeast 503 579 33,000  Level FlightAware ADS-B
Mon 12:06:09 AM 33.8390 -92.8160 31° Northeast 503 579 33,000  Level FlightAware ADS-B
Mon 12:06:58 AM 33.9220 -92.7560 31° Northeast 503 579 33,000  Level FlightAware ADS-B
Mon 12:07:34 AM 33.9830 -92.7110 31° Northeast 503 579 33,000  Level FlightAware ADS-B
Mon 12:08:10 AM 34.0440 -92.6670 31° Northeast 503 579 33,000  Level FlightAware ADS-B
Mon 12:08:58 AM 34.1260 -92.6080 31° Northeast 503 579 33,000  Level FlightAware ADS-B
Mon 12:13:09 AM 34.8890 -92.2520 21° North 521 600 33,000  Level FlightAware ADS-B
Mon 12:14:10 AM 35.0210 -92.2010 18° North 522 601 33,000  Level FlightAware ADS-B
Mon 12:14:37 AM 35.0910 -92.1730 18° North 524 603 33,000  Level FlightAware ADS-B
Mon 12:15:27 AM 35.1900 -92.1360 17° North 524 603 33,000  Level FlightAware ADS-B
Mon 12:16:03 AM 35.2610 -92.1090 17° North 524 603 33,000  Level FlightAware ADS-B
Mon 12:16:51 AM 35.4040 -92.0500 19° North 524 603 33,000  Level FlightAware ADS-B
Mon 12:17:32 AM 35.4950 -92.0140 18° North 521 600 33,000  Level FlightAware ADS-B
Mon 12:18:15 AM 35.5970 -91.9730 18° North 522 601 33,000  Level FlightAware ADS-B
Mon 12:18:55 AM 35.6870 -91.9380 18° North 526 605 33,000  Level FlightAware ADS-B
Mon 12:19:31 AM 35.7740 -91.9030 18° North 529 609 33,000  Level FlightAware ADS-B
Mon 12:20:29 AM 35.9070 -91.8500 18° North 527 606 33,000  Level FlightAware ADS-B
Mon 12:21:09 AM 36.0010 -91.8130 18° North 525 604 33,000  Level FlightAware ADS-B
Mon 12:21:45 AM 36.0840 -91.7800 18° North 522 601 33,000  Level FlightAware ADS-B
Mon 12:22:29 AM 36.1820 -91.7400 18° North 528 608 33,000  Level FlightAware ADS-B
Mon 12:23:09 AM 36.2780 -91.7010 18° North 531 611 33,000  Level FlightAware ADS-B
Mon 12:23:53 AM 36.3830 -91.6590 18° North 530 610 33,000  Level FlightAware ADS-B
Mon 12:24:33 AM 36.4750 -91.6220 18° North 532 612 33,000  Level FlightAware ADS-B
Mon 12:25:17 AM 36.5790 -91.5800 18° North 528 608 33,000  Level FlightAware ADS-B
Mon 12:25:55 AM 36.6680 -91.5430 18° North 525 604 33,000  Level FlightAware ADS-B
Mon 12:26:33 AM 36.7540 -91.5080 18° North 524 603 33,000  Level FlightAware ADS-B
Mon 12:27:12 AM 36.8430 -91.4720 18° North 523 602 33,000  Level FlightAware ADS-B
Mon 12:27:56 AM 36.9450 -91.4300 18° North 523 602 33,000  Level FlightAware ADS-B
Mon 12:28:32 AM 37.0280 -91.3960 18° North 524 603 33,000  Level FlightAware ADS-B
Mon 12:29:12 AM 37.1200 -91.3580 18° North 525 604 33,000  Level FlightAware ADS-B
Mon 12:29:52 AM 37.2130 -91.3190 18° North 524 603 33,000  Level FlightAware ADS-B
Mon 12:30:38 AM 37.3170 -91.2760 18° North 522 601 33,000  Level FlightAware ADS-B
Mon 12:31:16 AM 37.4060 -91.2390 18° North 521 600 33,000  Level FlightAware ADS-B
Mon 12:32:15 AM 37.5280 -91.1890 18° North 522 601 33,000  Level FlightAware ADS-B
Mon 12:32:51 AM 37.5980 -91.1600 18° North 522 601 33,000  Level FlightAware ADS-B
Mon 12:33:36 AM 37.7150 -91.1110 18° North 519 597 33,000  Level FlightAware ADS-B
Mon 12:34:24 AM 37.8080 -91.0730 18° North 519 597 33,000  Level FlightAware ADS-B
Mon 12:35:00 AM 37.9100 -91.0280 19° North 512 589 33,000  Level FlightAware ADS-B
Mon 12:35:42 AM 37.9900 -90.9950 18° North 512 589 33,000  Level FlightAware ADS-B
Mon 12:36:25 AM 38.1040 -90.9460 19° North 509 586 33,000  Level FlightAware ADS-B
Mon 12:37:10 AM 38.2040 -90.9040 18° North 509 586 33,000  Level FlightAware ADS-B
Mon 12:37:50 AM 38.2940 -90.8650 19° North 510 587 33,000  Level FlightAware ADS-B
Mon 12:38:33 AM 38.3900 -90.8250 18° North 510 587 33,000  Level FlightAware ADS-B
Mon 12:39:14 AM 38.4840 -90.7840 19° North 510 587 33,000  Level FlightAware ADS-B
Mon 12:40:08 AM 38.5970 -90.7360 18° North 509 586 33,000  Level FlightAware ADS-B
Mon 12:40:46 AM 38.6890 -90.6960 19° North 507 583 33,000  Level FlightAware ADS-B
Mon 12:41:26 AM 38.7790 -90.6570 19° North 507 583 33,000  Level FlightAware ADS-B
Mon 12:42:12 AM 38.8810 -90.6130 19° North 506 582 33,000  Level FlightAware ADS-B
Mon 12:42:44 AM 38.9510 -90.5820 19° North 505 581 33,000  Level FlightAware ADS-B
Mon 12:43:24 AM 39.0390 -90.5440 19° North 506 582 33,000  Level FlightAware ADS-B
Mon 12:44:35 AM 39.1980 -90.4740 19° North 509 586 33,000  Level FlightAware ADS-B
Mon 12:45:20 AM 39.2980 -90.4300 19° North 510 587 33,000  Level FlightAware ADS-B
Mon 12:46:00 AM 39.3880 -90.3910 19° North 511 588 33,000  Level FlightAware ADS-B
Mon 12:46:44 AM 39.4840 -90.3490 19° North 510 587 33,000  Level FlightAware ADS-B
Mon 12:47:19 AM 39.5630 -90.3130 19° North 508 585 33,000  Level FlightAware ADS-B
Mon 12:48:00 AM 39.6560 -90.2720 19° North 508 585 33,000  Level FlightAware ADS-B
Mon 12:48:40 AM 39.7430 -90.2330 19° North 508 585 33,000  Level FlightAware ADS-B
Mon 12:49:21 AM 39.8290 -90.1950 19° North 508 585 33,000  Level FlightAware ADS-B
Mon 12:50:01 AM 39.9210 -90.1540 19° North 510 587 33,000  Level FlightAware ADS-B
Mon 12:50:41 AM 40.0130 -90.1130 19° North 511 588 33,000  Level FlightAware ADS-B
Mon 12:51:08 AM 40.0750 -90.0850 19° North 511 588 33,000  Level FlightAware ADS-B
Mon 12:51:44 AM 40.1520 -90.0500 19° North 512 589 33,000  Level FlightAware ADS-B
Mon 12:52:29 AM 40.2540 -90.0040 19° North 512 589 33,000  Level FlightAware ADS-B
Mon 12:53:10 AM 40.3470 -89.9620 19° North 512 589 33,000  Level FlightAware ADS-B
Mon 12:53:44 AM 40.4250 -89.9260 19° North 513 590 33,000  Level FlightAware ADS-B
Mon 12:54:26 AM 40.5190 -89.8830 19° North 513 590 33,000  Level FlightAware ADS-B
Mon 12:55:06 AM 40.6090 -89.8420 19° North 511 588 33,000  Level FlightAware ADS-B
Mon 12:55:42 AM 40.6880 -89.8060 19° North 512 589 33,000  Level FlightAware ADS-B
Mon 12:56:27 AM 40.7890 -89.7600 19° North 514 592 33,000  Level FlightAware ADS-B
Mon 12:57:07 AM 40.8780 -89.7190 19° North 513 590 33,000  Level FlightAware ADS-B
Mon 12:57:50 AM 40.9740 -89.6740 19° North 512 589 33,000  Level FlightAware ADS-B
Mon 12:58:30 AM 41.0650 -89.6320 19° North 512 589 33,000  Level FlightAware ADS-B
Mon 12:59:14 AM 41.1600 -89.5790 23° Northeast 506 582 33,000  Level FlightAware ADS-B
Mon 12:59:55 AM 41.2360 -89.5050 36° Northeast 504 580 33,000  Level FlightAware ADS-B
Mon 01:00:30 AM 41.2980 -89.4320 41° Northeast 505 581 33,000  Level FlightAware ADS-B
Mon 01:01:14 AM 41.3760 -89.3420 41° Northeast 503 579 33,000  Level FlightAware ADS-B
Mon 01:01:55 AM 41.4470 -89.2600 41° Northeast 505 581 33,000  Level FlightAware ADS-B
Mon 01:02:35 AM 41.5170 -89.1810 40° Northeast 504 580 33,000  Level FlightAware ADS-B
Mon 01:03:19 AM 41.5960 -89.0900 41° Northeast 506 582 33,000  Level FlightAware ADS-B
Mon 01:04:00 AM 41.6700 -89.0050 41° Northeast 505 581 33,000  Level FlightAware ADS-B
Mon 01:04:43 AM 41.7450 -88.9180 41° Northeast 505 581 33,000  Level FlightAware ADS-B
Mon 01:05:19 AM 41.8090 -88.8440 41° Northeast 506 582 33,000  Level FlightAware ADS-B
Mon 01:06:00 AM 41.8800 -88.7610 41° Northeast 506 582 33,000  Level FlightAware ADS-B
Mon 01:06:42 AM 41.9540 -88.6750 41° Northeast 506 582 33,000  Level FlightAware ADS-B
Mon 01:07:22 AM 42.0250 -88.5920 41° Northeast 506 582 33,000  Level FlightAware ADS-B
Mon 01:07:57 AM 42.0870 -88.5190 41° Northeast 507 583 33,000  Level FlightAware ADS-B
Mon 01:08:43 AM 42.1690 -88.4220 41° Northeast 507 583 33,000  Level FlightAware ADS-B
Mon 01:09:23 AM 42.2390 -88.3390 41° Northeast 507 583 33,000  Level FlightAware ADS-B
Mon 01:10:06 AM 42.3150 -88.2500 41° Northeast 507 583 33,000  Level FlightAware ADS-B
Mon 01:10:47 AM 42.3870 -88.1630 42° Northeast 507 583 33,000  Level FlightAware ADS-B
Mon 01:11:27 AM 42.4440 -88.0950 41° Northeast 508 585 33,000  Level FlightAware ADS-B
Mon 01:12:07 AM 42.5280 -87.9960 41° Northeast 507 583 33,000  Level FlightAware ADS-B
Mon 01:12:50 AM 42.6030 -87.9050 42° Northeast 507 583 33,000  Level FlightAware ADS-B
Mon 01:13:31 AM 42.6760 -87.8170 42° Northeast 505 581 33,000  Level FlightAware ADS-B
Mon 01:14:11 AM 42.7460 -87.7330 41° Northeast 504 580 33,000  Level FlightAware ADS-B
Mon 01:14:55 AM 42.8230 -87.6410 41° Northeast 503 579 33,000  Level FlightAware ADS-B
Mon 01:15:31 AM 42.8870 -87.5690 39° Northeast 504 580 33,000  Level FlightAware ADS-B
Mon 01:16:11 AM 42.9600 -87.4890 39° Northeast 505 581 33,000  Level FlightAware ADS-B
Mon 01:16:56 AM 43.0410 -87.4000 39° Northeast 505 581 33,000  Level FlightAware ADS-B
Mon 01:17:35 AM 43.1130 -87.3210 39° Northeast 505 581 33,000  Level FlightAware ADS-B
Mon 01:18:17 AM 43.1890 -87.2380 39° Northeast 506 582 33,000  Level FlightAware ADS-B
Mon 01:19:01 AM 43.2690 -87.1490 39° Northeast 507 583 33,000  Level FlightAware ADS-B
Mon 01:19:40 AM 43.3400 -87.0710 39° Northeast 507 583 33,000  Level FlightAware ADS-B
Mon 01:20:20 AM 43.4130 -86.9890 39° Northeast 508 585 33,000  Level FlightAware ADS-B
Mon 01:21:00 AM 43.4860 -86.9080 39° Northeast 506 582 33,000  Level FlightAware ADS-B
Mon 01:21:39 AM 43.5560 -86.8300 39° Northeast 506 582 33,000  Level FlightAware ADS-B
Mon 01:22:20 AM 43.6290 -86.7480 39° Northeast 506 582 33,000  Level FlightAware ADS-B
Mon 01:23:05 AM 43.7120 -86.6530 40° Northeast 508 585 33,000  Level FlightAware ADS-B
Mon 01:23:45 AM 43.7860 -86.5700 39° Northeast 510 587 33,000  Level FlightAware ADS-B
Mon 01:24:29 AM 43.8630 -86.4820 39° Northeast 510 587 33,000  Level FlightAware ADS-B
Mon 01:25:05 AM 43.9280 -86.4080 39° Northeast 510 587 33,000  Level FlightAware ADS-B
Mon 01:25:45 AM 44.0040 -86.3210 39° Northeast 509 586 33,000  Level FlightAware ADS-B
Mon 01:26:27 AM 44.0800 -86.2340 39° Northeast 506 582 33,000  Level FlightAware ADS-B
Mon 01:27:07 AM 44.1520 -86.1520 39° Northeast 504 580 33,000  Level FlightAware ADS-B
Mon 01:27:44 AM 44.2190 -86.0740 40° Northeast 503 579 33,000  Level FlightAware ADS-B
Mon 01:28:24 AM 44.2910 -85.9910 40° Northeast 502 578 33,000  Level FlightAware ADS-B
Mon 01:29:10 AM 44.3730 -85.8960 40° Northeast 501 577 33,000  Level FlightAware ADS-B
Mon 01:29:51 AM 44.4460 -85.8110 40° Northeast 503 579 33,000  Level FlightAware ADS-B
Mon 01:30:35 AM 44.5230 -85.7200 40° Northeast 505 581 33,000  Level FlightAware ADS-B
Mon 01:31:12 AM 44.5890 -85.6430 40° Northeast 505 581 33,000  Level FlightAware ADS-B
Mon 01:31:54 AM 44.6640 -85.5550 40° Northeast 503 579 33,000  Level FlightAware ADS-B
Mon 01:32:30 AM 44.7280 -85.4760 41° Northeast 501 577 33,000  Level FlightAware ADS-B
Mon 01:33:15 AM 44.8030 -85.3800 42° Northeast 501 577 33,000  Level FlightAware ADS-B
Mon 01:33:57 AM 44.8770 -85.2850 42° Northeast 501 577 33,000  Level FlightAware ADS-B
Mon 01:34:32 AM 44.9360 -85.2100 42° Northeast 501 577 33,000  Level FlightAware ADS-B
Mon 01:35:12 AM 45.0060 -85.1210 42° Northeast 501 577 33,000  Level FlightAware ADS-B
Mon 01:35:55 AM 45.0800 -85.0270 42° Northeast 501 577 33,000  Level FlightAware ADS-B
Mon 01:36:36 AM 45.1480 -84.9390 42° Northeast 500 575 33,000  Level FlightAware ADS-B
Mon 01:37:21 AM 45.2280 -84.8370 42° Northeast 500 575 33,000  Level FlightAware ADS-B
Mon 01:38:01 AM 45.2960 -84.7480 43° Northeast 500 575 33,000  Level FlightAware ADS-B
Mon 01:38:45 AM 45.3700 -84.6520 42° Northeast 498 573 33,000  Level FlightAware ADS-B
Mon 01:39:19 AM 45.4280 -84.5770 42° Northeast 499 574 33,000  Level FlightAware ADS-B
Mon 01:40:01 AM 45.4990 -84.4840 43° Northeast 500 575 33,000  Level FlightAware ADS-B
Mon 01:40:41 AM 45.5670 -84.3940 43° Northeast 501 577 33,000  Level FlightAware ADS-B
Mon 01:41:21 AM 45.6350 -84.3040 43° Northeast 499 574 33,000  Level FlightAware ADS-B
Mon 01:42:00 AM 45.7000 -84.2190 42° Northeast 499 574 33,000  Level FlightAware ADS-B
Mon 01:42:41 AM 45.7710 -84.1250 43° Northeast 500 575 33,000  Level FlightAware ADS-B
Mon 01:43:23 AM 45.8420 -84.0300 43° Northeast 501 577 33,000  Level FlightAware ADS-B
Mon 01:44:07 AM 45.9170 -83.9290 43° Northeast 502 578 33,000  Level FlightAware ADS-B
Mon 01:44:45 AM 45.9810 -83.8440 43° Northeast 503 579 33,000  Level FlightAware ADS-B
Mon 01:45:27 AM 46.0520 -83.7490 43° Northeast 504 580 33,000  Level FlightAware ADS-B
Mon 01:46:12 AM 46.1280 -83.6460 43° Northeast 505 581 33,000  Level FlightAware ADS-B
Mon 01:46:44 AM 46.1820 -83.5720 43° Northeast 505 581 33,000  Level FlightAware ADS-B
Mon 01:47:27 AM 46.2560 -83.4720 43° Northeast 503 579 33,000  Level FlightAware ADS-B
Mon 01:48:07 AM 46.3220 -83.3820 43° Northeast 504 580 33,000  Level FlightAware ADS-B
Mon 01:48:43 AM 46.3850 -83.2960 43° Northeast 504 580 33,000  Level FlightAware ADS-B
Mon 01:49:27 AM 46.4590 -83.1940 43° Northeast 505 581 33,000  Level FlightAware ADS-B
Mon 01:50:09 AM 46.5300 -83.0970 43° Northeast 507 583 33,000  Level FlightAware ADS-B
Mon 01:50:52 AM 46.6030 -82.9950 44° Northeast 511 588 33,000  Level FlightAware ADS-B
Mon 01:51:32 AM 46.6700 -82.9010 44° Northeast 512 589 33,000  Level FlightAware ADS-B
Mon 01:52:17 AM 46.7460 -82.7950 44° Northeast 514 592 33,000  Level FlightAware ADS-B
Mon 01:52:51 AM 46.8050 -82.7130 44° Northeast 515 593 33,000  Level FlightAware ADS-B
Mon 01:53:41 AM 46.8930 -82.5900 44° Northeast 515 593 33,000  Level FlightAware ADS-B
Mon 01:54:20 AM 46.9580 -82.4980 44° Northeast 514 592 33,000  Level FlightAware ADS-B
Mon 01:55:02 AM 47.0300 -82.3960 44° Northeast 514 592 33,000  Level FlightAware ADS-B
Mon 01:55:46 AM 47.1050 -82.2880 44° Northeast 516 594 33,000  Level FlightAware ADS-B
Mon 01:56:27 AM 47.1760 -82.1880 44° Northeast 518 596 33,000  Level FlightAware ADS-B
Mon 01:57:10 AM 47.2500 -82.0820 44° Northeast 519 597 33,000  Level FlightAware ADS-B
Mon 01:57:46 AM 47.3120 -81.9920 45° Northeast 519 597 33,000  Level FlightAware ADS-B
Mon 01:58:28 AM 47.3830 -81.8880 45° Northeast 519 597 33,000  Level FlightAware ADS-B
Mon 01:59:08 AM 47.4500 -81.7860 46° Northeast 520 598 33,000  Level FlightAware ADS-B
Mon 02:00:02 AM 47.5390 -81.6470 46° Northeast 522 601 33,000  Level FlightAware ADS-B
Mon 02:00:45 AM 47.6100 -81.5370 46° Northeast 524 603 33,000  Level FlightAware ADS-B
Mon 02:01:28 AM 47.6840 -81.4230 46° Northeast 525 604 33,000  Level FlightAware ADS-B
Mon 02:02:12 AM 47.7570 -81.3080 47° Northeast 524 603 33,000  Level FlightAware ADS-B
Mon 02:02:54 AM 47.8190 -81.2120 46° Northeast 524 603 33,000  Level FlightAware ADS-B
Mon 02:03:42 AM 47.8880 -81.1060 46° Northeast 524 603 33,000  Level FlightAware ADS-B
Mon 02:04:18 AM 47.9390 -81.0260 46° Northeast 524 603 33,000  Level FlightAware ADS-B
Mon 02:04:54 AM 47.9910 -80.9470 45° Northeast 524 603 33,000  Level FlightAware ADS-B
Mon 02:05:42 AM 48.0590 -80.8400 46° Northeast 524 603 33,000  Level FlightAware ADS-B
Mon 02:06:18 AM 48.1110 -80.7600 46° Northeast 524 603 33,000  Level FlightAware ADS-B
Mon 02:06:54 AM 48.1630 -80.6800 46° Northeast 524 603 33,000  Level FlightAware ADS-B
Mon 02:07:42 AM 48.2310 -80.5740 46° Northeast 524 603 33,000  Level FlightAware ADS-B
Mon 02:08:18 AM 48.2830 -80.4940 46° Northeast 524 603 33,000  Level FlightAware ADS-B
Mon 02:08:54 AM 48.3340 -80.4130 47° Northeast 524 603 33,000  Level FlightAware ADS-B
Mon 02:09:42 AM 48.4030 -80.3060 46° Northeast 524 603 33,000  Level FlightAware ADS-B
Mon 02:10:19 AM 48.4560 -80.2240 46° Northeast 524 603 33,000  Level FlightAware ADS-B
Mon 02:11:25 AM 48.5500 -80.0760 46° Northeast 524 603 33,000  Level FlightAware ADS-B
Mon 02:12:13 AM 48.6190 -79.9680 46° Northeast 524 603 33,000  Level FlightAware ADS-B
Mon 02:12:54 AM 48.8000 -79.5833 46° Northeast 530 610 33,000  Level Toronto Center
Mon 02:13:54 AM 48.9000 -79.4333 45° Northeast 530 610 33,000  Level Toronto Center
Mon 02:14:54 AM 49.0000 -79.2500 50° Northeast 530 610 33,000  Level Toronto Center
Mon 02:15:54 AM 49.1000 -79.0667 50° Northeast 530 610 33,000  Level Toronto Center
Mon 02:16:54 AM 49.2000 -78.9167 44° Northeast 530 610 33,000  Level Toronto Center
Mon 02:17:54 AM 49.3000 -78.7333 50° Northeast 540 621 33,000  Level Toronto Center
Mon 02:18:54 AM 49.4000 -78.5833 44° Northeast 540 621 33,000  Level Toronto Center
Mon 02:19:54 AM 49.4833 -78.4000 55° Northeast 530 610 33,000  Level Toronto Center
Mon 02:20:54 AM 49.5833 -78.2500 44° Northeast 530 610 33,000  Level Toronto Center
Mon 02:21:54 AM 49.6833 -78.0667 50° Northeast 540 621 33,000  Level Toronto Center
Mon 02:22:54 AM 49.7833 -77.8833 50° Northeast 540 621 33,000  Level Toronto Center
Mon 02:24:02 AM 49.9000 -77.7167 43° Northeast 530 610 33,000  Level Montreal Center
Mon 02:25:02 AM 50.0000 -77.5333 50° Northeast 530 610 33,000  Level Montreal Center
Mon 02:26:02 AM 50.0833 -77.3833 49° Northeast 530 610 33,000  Level Montreal Center
Mon 02:27:02 AM 50.1833 -77.1667 54° Northeast 540 621 33,000  Level Montreal Center
Mon 02:28:02 AM 50.2667 -77.0167 49° Northeast 540 621 33,000  Level Montreal Center
Mon 02:29:02 AM 50.3833 -76.8167 48° Northeast 540 621 33,000  Level Montreal Center
Mon 02:30:02 AM 50.4833 -76.6500 47° Northeast 540 621 33,000  Level Montreal Center
Mon 02:31:02 AM 50.5833 -76.4667 49° Northeast 540 621 33,000  Level Montreal Center
Mon 02:32:02 AM 50.6667 -76.2833 54° Northeast 540 621 33,000  Level Montreal Center
Mon 02:33:02 AM 50.7667 -76.1000 49° Northeast 540 621 33,000  Level Montreal Center
Mon 02:34:02 AM 50.8667 -75.9167 49° Northeast 540 621 33,000  Level Montreal Center
Mon 02:35:02 AM 50.9500 -75.7167 56° Northeast 540 621 33,000  Level Montreal Center
Mon 02:36:02 AM 51.0500 -75.5333 49° Northeast 540 621 33,000  Level Montreal Center
Mon 02:37:02 AM 51.1500 -75.3500 49° Northeast 540 621 33,000  Level Montreal Center
Mon 02:38:02 AM 51.2500 -75.1500 51° Northeast 540 621 33,000  Level Montreal Center
Mon 02:39:02 AM 51.3333 -74.9667 54° Northeast 540 621 33,000  Level Montreal Center
Mon 02:40:02 AM 51.4333 -74.8000 46° Northeast 540 621 33,000  Level Montreal Center
Mon 02:41:02 AM 51.5333 -74.6167 49° Northeast 540 621 33,000  Level Montreal Center
Mon 02:42:02 AM 51.6167 -74.4167 56° Northeast 540 621 33,000  Level Montreal Center
Mon 02:43:02 AM 51.7167 -74.2333 49° Northeast 540 621 33,000  Level Montreal Center
Mon 02:44:02 AM 51.8167 -74.0333 51° Northeast 540 621 33,000  Level Montreal Center
Mon 02:45:02 AM 51.9000 -73.8333 56° Northeast 540 621 33,000  Level Montreal Center
Mon 02:46:02 AM 51.9833 -73.6333 56° Northeast 540 621 33,000  Level Montreal Center
Mon 02:47:02 AM 52.0833 -73.4500 48° Northeast 540 621 33,000  Level Montreal Center
Mon 02:48:02 AM 52.1833 -73.2500 51° Northeast 540 621 33,000  Level Montreal Center
Mon 02:49:02 AM 52.2833 -73.0500 51° Northeast 540 621 33,000  Level Montreal Center
Mon 02:50:02 AM 52.3500 -72.8500 61° Northeast 550 633 33,000  Level Montreal Center
Mon 02:51:02 AM 52.4500 -72.6500 51° Northeast 550 633 33,000  Level Montreal Center
Mon 02:52:02 AM 52.5500 -72.4500 51° Northeast 540 621 33,000  Level Montreal Center
Mon 02:53:02 AM 52.6333 -72.2500 55° Northeast 540 621 33,000  Level Montreal Center
Mon 02:54:02 AM 52.7167 -72.0500 55° Northeast 550 633 33,000  Level Montreal Center
Mon 02:55:02 AM 52.8167 -71.8333 53° Northeast 550 633 33,000  Level Montreal Center
Mon 02:56:02 AM 52.9000 -71.6333 55° Northeast 550 633 33,000  Level Montreal Center
Mon 02:57:02 AM 53.0000 -71.4333 50° Northeast 550 633 33,000  Level Montreal Center
Mon 02:58:02 AM 53.1000 -71.2000 54° Northeast 550 633 33,000  Level Montreal Center
Mon 02:59:02 AM 53.1833 -70.9833 57° Northeast 550 633 33,000  Level Montreal Center
Mon 03:00:02 AM 53.2833 -70.7833 50° Northeast 560 644 33,000  Level Montreal Center
Mon 03:01:02 AM 53.3500 -70.5667 63° Northeast 560 644 33,000  Level Montreal Center
Mon 03:02:03 AM 53.4333 -70.3833 53° Northeast 560 644 33,000  Level Gander Center
Mon 03:03:03 AM 53.5333 -70.1833 50° Northeast 570 656 33,000  Level Gander Center
Mon 03:04:03 AM 53.6167 -69.9833 55° Northeast 570 656 33,000  Level Gander Center
Mon 03:05:03 AM 53.7000 -69.7333 61° Northeast 570 656 33,000  Level Gander Center
Mon 03:06:03 AM 53.8000 -69.5333 50° Northeast 570 656 33,000  Level Gander Center
Mon 03:07:03 AM 53.9000 -69.3000 54° Northeast 580 667 33,000  Level Gander Center
Mon 03:08:03 AM 53.9833 -69.0500 60° Northeast 570 656 33,000  Level Gander Center
Mon 03:09:03 AM 54.0833 -68.8500 50° Northeast 570 656 33,000  Level Gander Center
Mon 03:10:03 AM 54.1667 -68.6000 60° Northeast 570 656 33,000  Level Gander Center
Mon 03:11:03 AM 54.2500 -68.3833 57° Northeast 580 667 33,000  Level Gander Center
Mon 03:12:03 AM 54.3333 -68.1667 57° Northeast 580 667 33,000  Level Gander Center
Mon 03:13:03 AM 54.4167 -67.9167 60° Northeast 570 656 33,000  Level Gander Center
Mon 03:14:03 AM 54.5167 -67.7000 51° Northeast 570 656 33,000  Level Gander Center
Mon 03:15:03 AM 54.6000 -67.4667 58° Northeast 570 656 33,000  Level Gander Center
Mon 03:16:03 AM 54.6667 -67.2333 64° Northeast 570 656 33,000  Level Gander Center
Mon 03:17:03 AM 54.7667 -67.0167 51° Northeast 570 656 33,000  Level Gander Center
Mon 03:18:03 AM 54.8500 -66.7667 60° Northeast 560 644 33,000  Level Gander Center
Mon 03:19:03 AM 54.9333 -66.5500 56° Northeast 560 644 33,000  Level Gander Center
Mon 03:20:03 AM 55.0167 -66.3000 60° Northeast 560 644 33,000  Level Gander Center
Mon 03:21:03 AM 55.1000 -66.0667 58° Northeast 560 644 33,000  Level Gander Center
Mon 03:22:03 AM 55.1833 -65.8500 56° Northeast 560 644 33,000  Level Gander Center
Mon 03:23:03 AM 55.2667 -65.6167 58° Northeast 560 644 33,000  Level Gander Center
Mon 03:24:03 AM 55.3333 -65.4000 62° Northeast 560 644 33,000  Level Gander Center
Mon 03:25:03 AM 55.4333 -65.1333 56° Northeast 550 633 33,000  Level Gander Center
Mon 03:26:03 AM 55.5000 -64.9167 61° Northeast 560 644 33,000  Level Gander Center
Mon 03:27:03 AM 55.5667 -64.6833 63° Northeast 550 633 33,000  Level Gander Center
Mon 03:28:03 AM 55.6500 -64.4500 58° Northeast 550 633 33,000  Level Gander Center
Mon 03:29:03 AM 55.7167 -64.2167 63° Northeast 550 633 33,000  Level Gander Center
Mon 03:30:03 AM 55.8000 -63.9833 57° Northeast 540 621 33,000  Level Gander Center
Mon 03:31:03 AM 55.8833 -63.7167 61° Northeast 550 633 33,000  Level Gander Center
Mon 03:32:03 AM 55.9500 -63.5167 59° Northeast 550 633 33,000  Level Gander Center
Mon 03:33:03 AM 56.0167 -63.2833 63° Northeast 550 633 33,000  Level Gander Center
Mon 03:34:03 AM 56.1000 -63.0167 61° Northeast 550 633 33,000  Level Gander Center
Mon 03:35:03 AM 56.1833 -62.7833 57° Northeast 560 644 33,000  Level Gander Center
Mon 03:36:03 AM 56.2667 -62.5167 61° Northeast 570 656 33,000  Level Gander Center
Mon 03:37:03 AM 56.3333 -62.2833 63° Northeast 570 656 33,000  Level Gander Center
Mon 03:38:03 AM 56.4000 -62.0333 64° Northeast 560 644 33,000  Level Gander Center
Mon 03:39:03 AM 56.4833 -61.8000 57° Northeast 570 656 33,000  Level Gander Center
Mon 03:40:03 AM 56.5500 -61.5167 67° East 560 644 33,000  Level Gander Center
Mon 03:41:03 AM 56.6167 -61.2833 62° Northeast 560 644 33,000  Level Gander Center
Mon 03:42:03 AM 56.6833 -61.0333 64° Northeast 560 644 33,000  Level Gander Center
Mon 03:43:03 AM 56.7667 -60.7667 60° Northeast 560 644 33,000  Level Gander Center
Mon 03:44:03 AM 56.8333 -60.5167 64° Northeast 570 656 33,000  Level Gander Center
Mon 03:45:03 AM 56.9167 -60.2500 60° Northeast 570 656 33,000  Level Gander Center
Mon 03:46:03 AM 56.9833 -60.0000 64° Northeast 570 656 33,000  Level Gander Center
Mon 03:47:03 AM 57.0500 -59.7500 64° Northeast 570 656 33,000  Level Gander Center
Mon 03:48:03 AM 57.1000 -59.5000 70° East 560 644 33,000  Level Gander Center
Mon 03:49:03 AM 57.1833 -59.2167 61° Northeast 580 667 33,000  Level Gander Center
Mon 03:50:03 AM 57.2667 -58.9333 61° Northeast 570 656 33,000  Level Gander Center
Mon 03:51:03 AM 57.3167 -58.6833 70° East 570 656 33,000  Level Gander Center
Mon 03:52:03 AM 57.3667 -58.4333 70° East 570 656 33,000  Level Gander Center
Mon 03:53:03 AM 57.4333 -58.1500 66° East 580 667 33,000  Level Gander Center
Mon 03:54:03 AM 57.5000 -57.8667 66° East 570 656 33,000  Level Gander Center
Mon 03:55:03 AM 57.5500 -57.6167 69° East 570 656 33,000  Level Gander Center
Mon 03:56:03 AM 57.6333 -57.3333 61° Northeast 570 656 33,000  Level Gander Center
Mon 03:57:03 AM 57.6833 -57.0333 73° East 570 656 33,000  Level Gander Center
Mon 03:58:03 AM 57.7500 -56.7833 63° Northeast 570 656 33,000  Level Gander Center
Mon 03:59:03 AM 57.8000 -56.5000 72° East 570 656 33,000  Level Gander Center
Mon 04:00:03 AM 57.8500 -56.2333 70° East 560 644 33,000  Level Gander Center
Mon 04:01:03 AM 57.9167 -55.9667 65° Northeast 560 644 33,000  Level Gander Center
Mon 04:02:03 AM 57.9667 -55.6833 71° East 550 633 33,000  Level Gander Center
Mon 04:03:03 AM 58.0167 -55.4167 70° East 550 633 33,000  Level Gander Center
Mon 04:04:03 AM 58.0833 -55.1667 63° Northeast 540 621 33,000  Level Gander Center
Mon 04:05:03 AM 58.1167 -54.9000 77° East 520 598 33,000  Level Gander Center
Mon 04:06:03 AM 58.1667 -54.6333 70° East 530 610 33,000  Level Gander Center
Mon 04:08:00 AM 58.2661 -54.1361 69° East  Level FlightAware Approximate
Mon 04:15:00 AM 58.6070 -52.3286 69° East  Level FlightAware Approximate
Mon 04:16:00 AM 58.6536 -52.0676 71° East  Level FlightAware Approximate
Mon 04:17:00 AM 58.6997 -51.8058 71° East  Level FlightAware Approximate
Mon 04:18:00 AM 58.7452 -51.5434 71° East  Level FlightAware Approximate
Mon 04:19:00 AM 58.7902 -51.2803 72° East  Level FlightAware Approximate
Mon 04:20:00 AM 58.8347 -51.0165 72° East  Level FlightAware Approximate
Mon 04:21:00 AM 58.8786 -50.7520 72° East  Level FlightAware Approximate
Mon 04:22:00 AM 58.9220 -50.4869 72° East  Level FlightAware Approximate
Mon 04:23:00 AM 58.9649 -50.2211 73° East  Level FlightAware Approximate
Mon 04:24:00 AM 59.0063 -49.9541 75° East  Level FlightAware Approximate
Mon 04:25:00 AM 59.0429 -49.6842 75° East  Level FlightAware Approximate
Mon 04:26:00 AM 59.0789 -49.4137 75° East  Level FlightAware Approximate
Mon 04:27:00 AM 59.1143 -49.1426 76° East  Level FlightAware Approximate
Mon 04:28:00 AM 59.1492 -48.8710 76° East  Level FlightAware Approximate
Mon 04:29:00 AM 59.1836 -48.5988 76° East  Level FlightAware Approximate
Mon 04:30:00 AM 59.2173 -48.3261 76° East  Level FlightAware Approximate
Mon 04:31:00 AM 59.2505 -48.0529 77° East  Level FlightAware Approximate
Mon 04:32:00 AM 59.2831 -47.7791 77° East  Level FlightAware Approximate
Mon 04:33:00 AM 59.3152 -47.5048 77° East  Level FlightAware Approximate
Mon 04:34:00 AM 59.3466 -47.2300 77° East  Level FlightAware Approximate
Mon 04:35:00 AM 59.3791 -46.9554 77° East  Level FlightAware Approximate
Mon 04:36:00 AM 59.4112 -46.6803 77° East  Level FlightAware Approximate
Mon 04:37:00 AM 59.4426 -46.4048 77° East  Level FlightAware Approximate
Mon 04:38:00 AM 59.4736 -46.1287 77° East  Level FlightAware Approximate
Mon 04:39:00 AM 59.5039 -45.8521 78° East  Level FlightAware Approximate
Mon 04:40:00 AM 59.5337 -45.5750 78° East  Level FlightAware Approximate
Mon 04:41:00 AM 59.5628 -45.2975 78° East  Level FlightAware Approximate
Mon 04:42:00 AM 59.5914 -45.0194 78° East  Level FlightAware Approximate
Mon 04:43:00 AM 59.6194 -44.7409 79° East  Level FlightAware Approximate
Mon 04:44:00 AM 59.6468 -44.4620 79° East  Level FlightAware Approximate
Mon 04:45:00 AM 59.6736 -44.1826 79° East  Level FlightAware Approximate
Mon 04:46:00 AM 59.6998 -43.9027 79° East  Level FlightAware Approximate
Mon 04:47:00 AM 59.7254 -43.6224 80° East  Level FlightAware Approximate
Mon 04:48:00 AM 59.7504 -43.3417 80° East  Level FlightAware Approximate
Mon 04:49:00 AM 59.7749 -43.0606 80° East  Level FlightAware Approximate
Mon 04:50:00 AM 59.7987 -42.7791 80° East  Level FlightAware Approximate
Mon 04:51:00 AM 59.8219 -42.4971 81° East  Level FlightAware Approximate
Mon 04:52:00 AM 59.8445 -42.2148 81° East  Level FlightAware Approximate
Mon 04:53:00 AM 59.8665 -41.9321 81° East  Level FlightAware Approximate
Mon 04:54:00 AM 59.8879 -41.6490 81° East  Level FlightAware Approximate
Mon 04:55:00 AM 59.9087 -41.3656 82° East  Level FlightAware Approximate
Mon 04:56:00 AM 59.9289 -41.0818 82° East  Level FlightAware Approximate
Mon 04:57:00 AM 59.9484 -40.7977 82° East  Level FlightAware Approximate
Mon 04:58:00 AM 59.9674 -40.5133 82° East  Level FlightAware Approximate
Mon 04:59:00 AM 59.9857 -40.2285 83° East  Level FlightAware Approximate
Mon 05:00:00 AM 60.0020 -39.9432 86° East  Level FlightAware Approximate
Mon 05:01:00 AM 60.0118 -39.6565 86° East  Level FlightAware Approximate
Mon 05:02:00 AM 60.0210 -39.3696 86° East  Level FlightAware Approximate
Mon 05:03:00 AM 60.0295 -39.0826 86° East  Level FlightAware Approximate
Mon 05:04:00 AM 60.0374 -38.7954 87° East  Level FlightAware Approximate
Mon 05:05:00 AM 60.0447 -38.5081 87° East  Level FlightAware Approximate
Mon 05:06:00 AM 60.0514 -38.2206 87° East  Level FlightAware Approximate
Mon 05:07:00 AM 60.0574 -37.9331 87° East  Level FlightAware Approximate
Mon 05:08:00 AM 60.0628 -37.6455 88° East  Level FlightAware Approximate
Mon 05:09:00 AM 60.0676 -37.3577 88° East  Level FlightAware Approximate
Mon 05:10:00 AM 60.0718 -37.0699 88° East  Level FlightAware Approximate
Mon 05:11:00 AM 60.0753 -36.7820 88° East  Level FlightAware Approximate
Mon 05:12:00 AM 60.0782 -36.4941 89° East  Level FlightAware Approximate
Mon 05:13:00 AM 60.0805 -36.2061 89° East  Level FlightAware Approximate
Mon 05:14:00 AM 60.0822 -35.9181 89° East  Level FlightAware Approximate
Mon 05:15:00 AM 60.0832 -35.6301 89° East  Level FlightAware Approximate
Mon 05:16:00 AM 60.0836 -35.3420 90° East  Level FlightAware Approximate
Mon 05:17:00 AM 60.0834 -35.0540 90° East  Level FlightAware Approximate
Mon 05:18:00 AM 60.0836 -34.7659 90° East  Level FlightAware Approximate
Mon 05:19:00 AM 60.0835 -34.4779 90° East  Level FlightAware Approximate
Mon 05:20:00 AM 60.0827 -34.1899 90° East  Level FlightAware Approximate
Mon 05:21:00 AM 60.0812 -33.9018 90° East  Level FlightAware Approximate
Mon 05:22:00 AM 60.0792 -33.6138 91° East  Level FlightAware Approximate
Mon 05:23:00 AM 60.0765 -33.3259 91° East  Level FlightAware Approximate
Mon 05:24:00 AM 60.0732 -33.0380 91° East  Level FlightAware Approximate
Mon 05:25:00 AM 60.0692 -32.7502 91° East  Level FlightAware Approximate
Mon 05:26:00 AM 60.0647 -32.4624 92° East  Level FlightAware Approximate
Mon 05:27:00 AM 60.0595 -32.1747 92° East  Level FlightAware Approximate
Mon 05:28:00 AM 60.0537 -31.8872 92° East  Level FlightAware Approximate
Mon 05:29:00 AM 60.0473 -31.5997 92° East  Level FlightAware Approximate
Mon 05:30:00 AM 60.0402 -31.3123 93° East  Level FlightAware Approximate
Mon 05:31:00 AM 60.0325 -31.0251 93° East  Level FlightAware Approximate
Mon 05:32:00 AM 60.0242 -30.7380 93° East  Level FlightAware Approximate
Mon 05:33:00 AM 60.0153 -30.4511 93° East  Level FlightAware Approximate
Mon 05:34:00 AM 60.0057 -30.1643 94° East  Level FlightAware Approximate
Mon 05:35:00 AM 60.0167 -29.8820 74° East  Level FlightAware Approximate
Mon 05:36:00 AM 60.0552 -29.6049 74° East  Level FlightAware Approximate
Mon 05:37:00 AM 60.0933 -29.3272 75° East  Level FlightAware Approximate
Mon 05:38:00 AM 60.1307 -29.0488 75° East  Level FlightAware Approximate
Mon 05:39:00 AM 60.1675 -28.7699 75° East  Level FlightAware Approximate
Mon 05:40:00 AM 60.2038 -28.4903 75° East  Level FlightAware Approximate
Mon 05:41:00 AM 60.2394 -28.2101 76° East  Level FlightAware Approximate
Mon 05:42:00 AM 60.2745 -27.9293 76° East  Level FlightAware Approximate
Mon 05:43:00 AM 60.3090 -27.6479 76° East  Level FlightAware Approximate
Mon 05:44:00 AM 60.3429 -27.3659 76° East  Level FlightAware Approximate
Mon 05:45:00 AM 60.3762 -27.0833 76° East  Level FlightAware Approximate
Mon 05:46:00 AM 60.4089 -26.8001 77° East  Level FlightAware Approximate
Mon 05:47:00 AM 60.4409 -26.5164 77° East  Level FlightAware Approximate
Mon 05:48:00 AM 60.4724 -26.2321 77° East  Level FlightAware Approximate
Mon 05:49:00 AM 60.5033 -25.9473 77° East  Level FlightAware Approximate
Mon 05:49:42 AM 60.5150 -25.8410 78° East 532 612 33,000  Level FlightAware ADS-B
Mon 05:50:00 AM 60.5336 -25.6620 78° East  Level FlightAware Approximate
Mon 05:50:16 AM 60.5330 -25.6690 78° East 534 615 33,000  Level FlightAware ADS-B
Mon 05:50:57 AM 60.5540 -25.4690 78° East 536 617 33,000  Level FlightAware ADS-B
Mon 05:51:37 AM 60.5740 -25.2720 78° East 536 617 33,000  Level FlightAware ADS-B
Mon 05:52:17 AM 60.5940 -25.0740 78° East 536 617 33,000  Level FlightAware ADS-B
Mon 05:52:55 AM 60.6130 -24.8850 78° East 536 617 33,000  Level FlightAware ADS-B
Mon 05:53:39 AM 60.6340 -24.6680 79° East 538 619 33,000  Level FlightAware ADS-B
Mon 05:54:21 AM 60.6520 -24.4890 78° East 539 620 33,000  Level FlightAware ADS-B
Mon 05:54:57 AM 60.6680 -24.3370 78° East 539 620 33,000  Level FlightAware ADS-B
Mon 05:55:45 AM 60.6890 -24.1330 78° East 539 620 33,000  Level FlightAware ADS-B
Mon 05:56:28 AM 60.7130 -23.8270 81° East 542 624 33,000  Level FlightAware ADS-B
Mon 05:57:08 AM 60.7310 -23.6260 80° East 544 626 33,000  Level FlightAware ADS-B
Mon 05:57:47 AM 60.7480 -23.4280 80° East 544 626 33,000  Level FlightAware ADS-B
Mon 05:58:33 AM 60.7680 -23.1960 80° East 544 626 33,000  Level FlightAware ADS-B
Mon 05:59:13 AM 60.7850 -22.9950 80° East 542 624 33,000  Level FlightAware ADS-B
Mon 05:59:57 AM 60.8030 -22.7690 81° East 540 621 33,000  Level FlightAware ADS-B
Mon 06:00:37 AM 60.8190 -22.5780 80° East 540 621 33,000  Level FlightAware ADS-B
Mon 06:01:17 AM 60.8360 -22.3670 81° East 542 624 33,000  Level FlightAware ADS-B
Mon 06:02:01 AM 60.8530 -22.1440 81° East 545 627 33,000  Level FlightAware ADS-B
Mon 06:02:45 AM 60.8700 -21.9200 81° East 546 628 33,000  Level FlightAware ADS-B
Mon 06:03:25 AM 60.8850 -21.7170 81° East 546 628 33,000  Level FlightAware ADS-B
Mon 06:04:09 AM 60.9010 -21.4920 82° East 545 627 33,000  Level FlightAware ADS-B
Mon 06:04:47 AM 60.9160 -21.2930 81° East 547 629 33,000  Level FlightAware ADS-B
Mon 06:05:33 AM 60.9320 -21.0600 82° East 548 631 33,000  Level FlightAware ADS-B
Mon 06:06:14 AM 60.9460 -20.8510 82° East 548 631 33,000  Level FlightAware ADS-B
Mon 06:06:57 AM 60.9610 -20.6290 82° East 547 629 33,000  Level FlightAware ADS-B
Mon 06:07:33 AM 60.9720 -20.4490 83° East 549 632 33,000  Level FlightAware ADS-B
Mon 06:08:35 AM 60.9910 -20.1760 82° East 549 632 33,000  Level FlightAware ADS-B
Mon 06:09:09 AM 61.0080 -19.9530 81° East 555 639 33,000  Level FlightAware ADS-B
Mon 06:09:54 AM 61.0390 -19.7210 74° East 557 641 33,000  Level FlightAware ADS-B
Mon 06:10:39 AM 61.0710 -19.4890 74° East 558 642 33,000  Level FlightAware ADS-B
Mon 06:11:17 AM 61.0970 -19.2960 74° East 558 642 33,000  Level FlightAware ADS-B
Mon 06:12:02 AM 61.1280 -19.0670 74° East 558 642 33,000  Level FlightAware ADS-B
Mon 06:12:47 AM 61.1590 -18.8320 75° East 558 642 33,000  Level FlightAware ADS-B
Mon 06:13:27 AM 61.1850 -18.6270 75° East 558 642 33,000  Level FlightAware ADS-B
Mon 06:14:09 AM 61.2140 -18.4070 75° East 558 642 33,000  Level FlightAware ADS-B
Mon 06:14:53 AM 61.2420 -18.1790 76° East 558 642 33,000  Level FlightAware ADS-B
Mon 06:16:05 AM 61.2850 -17.8440 75° East 558 642 33,000  Level FlightAware ADS-B
Mon 06:16:45 AM 61.3140 -17.5990 76° East 555 639 33,000  Level FlightAware ADS-B
Mon 06:17:29 AM 61.3410 -17.3750 76° East 552 635 33,000  Level FlightAware ADS-B
Mon 06:18:09 AM 61.3650 -17.1680 76° East 553 636 33,000  Level FlightAware ADS-B
Mon 06:18:53 AM 61.3910 -16.9410 76° East 555 639 33,000  Level FlightAware ADS-B
Mon 06:19:33 AM 61.4160 -16.7290 76° East 554 638 33,000  Level FlightAware ADS-B
Mon 06:20:17 AM 61.4410 -16.5080 77° East 554 638 33,000  Level FlightAware ADS-B
Mon 06:20:57 AM 61.4640 -16.2940 77° East 554 638 33,000  Level FlightAware ADS-B
Mon 06:21:41 AM 61.4890 -16.0660 77° East 554 638 33,000  Level FlightAware ADS-B
Mon 06:22:17 AM 61.5090 -15.8790 77° East 555 639 33,000  Level FlightAware ADS-B
Mon 06:23:05 AM 61.5360 -15.6270 77° East 554 638 33,000  Level FlightAware ADS-B
Mon 06:23:45 AM 61.5580 -15.4170 78° East 554 638 33,000  Level FlightAware ADS-B
Mon 06:24:29 AM 61.5810 -15.1870 78° East 553 636 33,000  Level FlightAware ADS-B
Mon 06:25:07 AM 61.6010 -14.9900 78° East 552 635 33,000  Level FlightAware ADS-B
Mon 06:25:53 AM 61.6240 -14.7490 79° East 554 638 33,000  Level FlightAware ADS-B
Mon 06:26:33 AM 61.6450 -14.5400 78° East 554 638 33,000  Level FlightAware ADS-B
Mon 06:27:17 AM 61.6670 -14.3080 79° East 552 635 33,000  Level FlightAware ADS-B
Mon 06:27:57 AM 61.6870 -14.0930 79° East 553 636 33,000  Level FlightAware ADS-B
Mon 06:28:41 AM 61.7070 -13.8680 79° East 553 636 33,000  Level FlightAware ADS-B
Mon 06:29:17 AM 61.7250 -13.6730 79° East 553 636 33,000  Level FlightAware ADS-B
Mon 06:30:01 AM 61.7450 -13.4410 80° East 553 636 33,000  Level FlightAware ADS-B
Mon 06:30:44 AM 61.7650 -13.2150 79° East 552 635 33,000  Level FlightAware ADS-B
Mon 06:31:28 AM 61.7850 -12.9790 80° East 552 635 33,000  Level FlightAware ADS-B
Mon 06:32:10 AM 61.8030 -12.7570 80° East 553 636 33,000  Level FlightAware ADS-B
Mon 06:32:51 AM 61.8200 -12.5420 80° East 553 636 33,000  Level FlightAware ADS-B
Mon 06:33:34 AM 61.8390 -12.3130 80° East 553 636 33,000  Level FlightAware ADS-B
Mon 06:34:14 AM 61.8550 -12.0970 81° East 554 638 33,000  Level FlightAware ADS-B
Mon 06:34:58 AM 61.8730 -11.8630 81° East 553 636 33,000  Level FlightAware ADS-B
Mon 06:35:36 AM 61.8890 -11.6580 81° East 553 636 33,000  Level FlightAware ADS-B
Mon 06:36:18 AM 61.9050 -11.4320 81° East 554 638 33,000  Level FlightAware ADS-B
Mon 06:37:02 AM 61.9210 -11.2030 81° East 553 636 33,000  Level FlightAware ADS-B
Mon 06:37:46 AM 61.9380 -10.9640 81° East 554 638 33,000  Level FlightAware ADS-B
Mon 06:38:26 AM 61.9520 -10.7500 82° East 554 638 33,000  Level FlightAware ADS-B
Mon 06:39:11 AM 61.9680 -10.5100 82° East 555 639 33,000  Level FlightAware ADS-B
Mon 06:39:52 AM 61.9820 -10.2860 82° East 555 639 33,000  Level FlightAware ADS-B
Mon 06:40:32 AM 61.9940 -10.0730 83° East 555 639 33,000  Level FlightAware ADS-B
Mon 06:41:46 AM 61.9850 -9.7080 93° East 552 635 33,000  Level FlightAware ADS-B
Mon 06:42:24 AM 61.9780 -9.5340 95° East 552 635 33,000  Level FlightAware ADS-B
Mon 06:43:00 AM 61.9710 -9.3680 95° East 552 635 33,000  Level FlightAware ADS-B
Mon 06:43:48 AM 61.9620 -9.1470 95° East 552 635 33,000  Level FlightAware ADS-B
Mon 06:44:24 AM 61.9550 -8.9810 95° East 552 635 33,000 424 Level FlightAware ADS-B
Mon 06:45:13 AM 61.9060 -8.5790 104° East 549 632 33,600 725 Climbing FlightAware ADS-B
Mon 06:45:55 AM 61.8890 -8.3520 99° East 545 627 34,100 759 Climbing FlightAware ADS-B
Mon 06:46:40 AM 61.8720 -8.1160 99° East 544 626 34,700 847 Climbing FlightAware ADS-B
Mon 06:47:20 AM 61.8550 -7.9030 100° East 552 635 35,300 867 Climbing FlightAware ADS-B
Mon 06:48:03 AM 61.8380 -7.6730 99° East 554 638 35,900 723 Climbing FlightAware ADS-B
Mon 06:48:43 AM 61.8200 -7.4580 100° East 553 636 36,300 571 Climbing FlightAware ADS-B
Mon 06:49:27 AM 61.8010 -7.2220 100° East 558 642 36,700 500 Climbing FlightAware ADS-B
Mon 06:50:07 AM 61.7840 -7.0090 99° East 559 643 37,000 237 Climbing FlightAware ADS-B
Mon 06:50:43 AM 61.7670 -6.8150 100° East 560 644 37,000  Level FlightAware ADS-B
Mon 06:51:23 AM 61.7490 -6.6000 100° East 560 644 37,000  Level FlightAware ADS-B
Mon 06:52:07 AM 61.7280 -6.3640 101° East 561 646 37,000  Level FlightAware ADS-B
Mon 06:52:41 AM 61.7120 -6.1830 100° East 560 644 37,000  Level FlightAware ADS-B
Mon 06:53:25 AM 61.6910 -5.9560 101° East 561 646 37,000  Level FlightAware ADS-B
Mon 06:54:05 AM 61.6710 -5.7350 101° East 561 646 37,000  Level FlightAware ADS-B
Mon 06:54:50 AM 61.6480 -5.4960 101° East 562 647 37,000  Level FlightAware ADS-B
Mon 06:55:29 AM 61.6280 -5.2850 101° East 561 646 37,000  Level FlightAware ADS-B
Mon 06:56:09 AM 61.6070 -5.0710 102° East 561 646 37,000  Level FlightAware ADS-B
Mon 06:56:53 AM 61.5830 -4.8370 102° East 562 647 37,000  Level FlightAware ADS-B
Mon 06:57:31 AM 61.5630 -4.6380 102° East 562 647 37,000  Level FlightAware ADS-B
Mon 06:58:11 AM 61.5410 -4.4240 102° East 563 648 37,000  Level FlightAware ADS-B
Mon 06:58:51 AM 61.5190 -4.2100 102° East 564 649 37,000  Level FlightAware ADS-B
Mon 06:59:35 AM 61.4940 -3.9770 103° East 563 648 37,000  Level FlightAware ADS-B
Mon 06:59:55 AM 61.4830 -3.8740 103° East 564 649 37,000  Level FlightAware ADS-B
Mon 07:00:59 AM 61.4450 -3.5330 103° East 564 649 37,000  Level FlightAware ADS-B
Mon 07:01:35 AM 61.4230 -3.3410 103° East 564 649 37,000  Level FlightAware ADS-B
Mon 07:02:17 AM 61.3980 -3.1190 103° East 567 652 37,000  Level FlightAware ADS-B
Mon 07:02:57 AM 61.3740 -2.9060 103° East 571 657 37,000  Level FlightAware ADS-B
Mon 07:03:37 AM 61.3490 -2.6990 104° East 572 658 37,000  Level FlightAware ADS-B
Mon 07:04:18 AM 61.3240 -2.4840 104° East 572 658 37,000  Level FlightAware ADS-B
Mon 07:05:04 AM 61.2930 -2.2310 104° East 573 659 37,000  Level FlightAware ADS-B
Mon 07:05:40 AM 61.2700 -2.0380 104° East 574 661 37,000  Level FlightAware ADS-B
Mon 07:06:30 AM 61.2370 -1.7760 105° East 574 661 37,000  Level FlightAware ADS-B
Mon 07:07:10 AM 61.2100 -1.5630 105° East 574 661 37,000  Level FlightAware ADS-B
Mon 07:07:48 AM 61.1870 -1.3860 105° East 574 661 37,000  Level FlightAware ADS-B
Mon 07:08:34 AM 61.1540 -1.1290 105° East 573 659 37,000  Level FlightAware ADS-B
Mon 07:09:08 AM 61.1320 -0.9660 106° East 573 659 37,000  Level FlightAware ADS-B
Mon 07:09:58 AM 61.0930 -0.6710 105° East 576 663 37,000  Level FlightAware ADS-B
Mon 07:10:38 AM 61.0640 -0.4600 106° East 576 663 37,000  Level FlightAware ADS-B
Mon 07:11:36 AM 61.0310 -0.2200 106° East 576 663 37,000  Level FlightAware ADS-B
Mon 07:12:14 AM 60.9850 0.0330 110° East 574 661 37,000  Level FlightAware ADS-B
Mon 07:13:01 AM 60.9270 0.2520 119° Southeast 571 657 37,000  Level FlightAware ADS-B
Mon 07:13:41 AM 60.8710 0.4380 122° Southeast 572 658 37,000  Level FlightAware ADS-B
Mon 07:14:21 AM 60.8140 0.6210 123° Southeast 573 659 37,000  Level FlightAware ADS-B
Mon 07:15:04 AM 60.7650 0.7740 123° Southeast 568 654 37,000  Level FlightAware ADS-B
Mon 07:15:48 AM 60.6870 1.0200 123° Southeast 568 654 37,000  Level FlightAware ADS-B
Mon 07:16:29 AM 60.6290 1.1980 124° Southeast 568 654 37,000  Level FlightAware ADS-B
Mon 07:17:11 AM 60.5770 1.3550 124° Southeast 572 658 37,000  Level FlightAware ADS-B
Mon 07:17:49 AM 60.5100 1.5580 124° Southeast 571 657 37,000  Level FlightAware ADS-B
Mon 07:18:29 AM 60.4520 1.7300 124° Southeast 572 658 37,000  Level FlightAware ADS-B
Mon 07:19:13 AM 60.3850 1.9290 124° Southeast 573 659 37,000  Level FlightAware ADS-B
Mon 07:19:49 AM 60.3310 2.0880 124° Southeast 573 659 37,000  Level FlightAware ADS-B
Mon 07:20:34 AM 60.2650 2.2820 124° Southeast 572 658 37,000  Level FlightAware ADS-B
Mon 07:21:14 AM 60.2040 2.4580 125° Southeast 573 659 37,000  Level FlightAware ADS-B
Mon 07:21:59 AM 60.1370 2.6520 125° Southeast 572 658 37,000  Level FlightAware ADS-B
Mon 07:22:39 AM 60.0770 2.8240 125° Southeast 573 659 37,000  Level FlightAware ADS-B
Mon 07:23:13 AM 60.0236 2.9770 125° Southeast 480 552 37,000  Level FlightAware UK
Mon 07:23:29 AM 60.0010 3.0390 125° Southeast 573 659 37,000  Level FlightAware ADS-B
Mon 07:24:14 AM 59.9310 3.2350 125° Southeast 573 659 37,000  Level FlightAware ADS-B
Mon 07:24:54 AM 59.8700 3.4060 125° Southeast 573 659 37,000  Level FlightAware ADS-B
Mon 07:25:25 AM 59.8208 3.5442 125° Southeast 478 550 37,000  Level FlightAware UK
Mon 07:25:29 AM 59.8180 3.5500 125° Southeast 573 659 37,000  Level FlightAware ADS-B
Mon 07:26:08 AM 59.7570 3.7180 126° Southeast 573 659 37,000  Level FlightAware ADS-B
Mon 07:26:54 AM 59.6840 3.9170 126° Southeast 573 659 37,000  Level FlightAware ADS-B
Mon 07:27:29 AM 59.6300 4.0640 126° Southeast 572 658 37,000  Level FlightAware ADS-B
Mon 07:28:09 AM 59.5690 4.2280 126° Southeast 572 658 37,000  Level FlightAware ADS-B
Mon 07:28:49 AM 59.5043 4.4055 126° Southeast 480 552 37,000  Level FlightAware UK
Mon 07:28:51 AM 59.5050 4.3970 126° Southeast 572 658 37,000  Level FlightAware ADS-B
Mon 07:29:30 AM 59.4490 4.5500 126° Southeast 572 658 37,000  Level FlightAware ADS-B
Mon 07:30:17 AM 59.3660 4.7660 127° Southeast 570 656 37,000  Level FlightAware ADS-B
Mon 07:30:57 AM 59.3020 4.9320 127° Southeast 570 656 37,000  Level FlightAware ADS-B
Mon 07:31:41 AM 59.2320 5.1140 127° Southeast 569 655 37,000  Level FlightAware ADS-B
Mon 07:32:19 AM 59.1720 5.2690 127° Southeast 568 654 37,000  Level FlightAware ADS-B
Mon 07:32:59 AM 59.1100 5.4270 127° Southeast 567 652 37,000  Level FlightAware ADS-B
Mon 07:33:39 AM 59.0460 5.5900 127° Southeast 567 652 37,000  Level FlightAware ADS-B
Mon 07:34:19 AM 58.9820 5.7500 128° Southeast 566 651 37,000  Level FlightAware ADS-B
Mon 07:35:03 AM 58.9120 5.9250 128° Southeast 564 649 37,000  Level FlightAware ADS-B
Mon 07:35:47 AM 58.8420 6.1020 127° Southeast 564 649 37,000  Level FlightAware ADS-B
Mon 07:36:27 AM 58.7780 6.2600 128° Southeast 562 647 37,000  Level FlightAware ADS-B
Mon 07:37:11 AM 58.7080 6.4310 128° Southeast 563 648 37,000  Level FlightAware ADS-B
Mon 07:37:51 AM 58.6440 6.5860 128° Southeast 561 646 37,000  Level FlightAware ADS-B
Mon 07:38:33 AM 58.5770 6.7490 128° Southeast 562 647 37,000  Level FlightAware ADS-B
Mon 07:39:17 AM 58.5050 6.9220 128° Southeast 562 647 37,000  Level FlightAware ADS-B
Mon 07:39:57 AM 58.4400 7.0770 129° Southeast 561 646 37,000  Level FlightAware ADS-B
Mon 07:40:37 AM 58.3740 7.2270 130° Southeast 558 642 37,000  Level FlightAware ADS-B
Mon 07:41:15 AM 58.2990 7.3470 140° Southeast 559 643 37,000  Level FlightAware ADS-B
Mon 07:42:05 AM 58.1980 7.5020 141° Southeast 559 643 37,000  Level FlightAware ADS-B
Mon 07:42:45 AM 58.1160 7.6180 143° Southeast 561 646 37,000  Level FlightAware ADS-B
Mon 07:43:25 AM 58.0330 7.7370 143° Southeast 562 647 37,000  Level FlightAware ADS-B
Mon 07:44:09 AM 57.9430 7.8670 143° Southeast 564 649 37,000  Level FlightAware ADS-B
Mon 07:44:41 AM 57.8760 7.9650 142° Southeast 564 649 37,000  Level FlightAware ADS-B
Mon 07:45:27 AM 57.7830 8.0990 142° Southeast 566 651 37,000  Level FlightAware ADS-B
Mon 07:46:07 AM 57.7000 8.2180 143° Southeast 567 652 37,000  Level FlightAware ADS-B
Mon 07:46:43 AM 57.6230 8.3270 143° Southeast 566 651 37,000  Level FlightAware ADS-B
Mon 07:47:19 AM 57.5490 8.4310 143° Southeast 567 652 37,000  Level FlightAware ADS-B
Mon 07:48:09 AM 57.4470 8.5730 143° Southeast 567 652 37,000  Level FlightAware ADS-B
Mon 07:48:45 AM 57.3700 8.6800 143° Southeast 566 651 37,000  Level FlightAware ADS-B
Mon 07:49:32 AM 57.2720 8.8140 144° Southeast 566 651 37,000  Level FlightAware ADS-B
Mon 07:50:12 AM 57.1940 8.9220 143° Southeast 566 651 37,000  Level FlightAware ADS-B
Mon 07:50:54 AM 57.1000 9.0500 143° Southeast 565 650 37,000  Level FlightAware ADS-B
Mon 07:51:30 AM 57.0260 9.1500 144° Southeast 564 649 37,000  Level FlightAware ADS-B
Mon 07:52:14 AM 56.9320 9.2760 144° Southeast 565 650 37,000  Level FlightAware ADS-B
Mon 07:52:54 AM 56.8480 9.3880 144° Southeast 566 651 37,000  Level FlightAware ADS-B
Mon 07:53:41 AM 56.7460 9.5240 144° Southeast 566 651 37,000  Level FlightAware ADS-B
Mon 07:54:25 AM 56.6540 9.6460 144° Southeast 565 650 37,000  Level FlightAware ADS-B
Mon 07:55:07 AM 56.5660 9.7620 144° Southeast 565 650 37,000  Level FlightAware ADS-B
Mon 07:55:43 AM 56.4890 9.8620 144° Southeast 566 651 37,000  Level FlightAware ADS-B
Mon 07:56:23 AM 56.4060 9.9700 144° Southeast 567 652 37,000  Level FlightAware ADS-B
Mon 07:57:07 AM 56.3100 10.0930 145° Southeast 566 651 37,000  Level FlightAware ADS-B
Mon 07:57:51 AM 56.2170 10.2130 144° Southeast 565 650 37,000  Level FlightAware ADS-B
Mon 07:58:30 AM 56.1390 10.3120 145° Southeast 564 649 37,000  Level FlightAware ADS-B
Mon 07:59:15 AM 56.0390 10.4390 145° Southeast 563 648 37,000  Level FlightAware ADS-B
Mon 07:59:55 AM 55.9530 10.5480 145° Southeast 566 651 37,000  Level FlightAware ADS-B
Mon 08:00:16 AM 55.9160 10.5950 145° Southeast 565 650 37,000  Level FlightAware ADS-B
Mon 08:02:10 AM 55.6920 10.8730 145° Southeast 565 650 37,000  Level FlightAware ADS-B
Mon 08:02:46 AM 55.5960 10.9910 145° Southeast 565 650 37,000  Level FlightAware ADS-B
Mon 08:03:26 AM 55.5050 11.1030 145° Southeast 563 648 37,000  Level FlightAware ADS-B
Mon 08:04:06 AM 55.4200 11.2070 145° Southeast 559 643 37,000  Level FlightAware ADS-B
Mon 08:04:46 AM 55.3340 11.3110 145° Southeast 552 635 37,000  Level FlightAware ADS-B
Mon 08:05:32 AM 55.2410 11.4230 146° Southeast 548 631 37,000  Level FlightAware ADS-B
Mon 08:06:16 AM 55.1480 11.5340 146° Southeast 543 625 37,000  Level FlightAware ADS-B
Mon 08:07:00 AM 55.0570 11.6420 146° Southeast 536 617 37,000  Level FlightAware ADS-B
Mon 08:07:40 AM 54.9760 11.7380 146° Southeast 534 615 37,000  Level FlightAware ADS-B
Mon 08:08:20 AM 54.8950 11.8360 145° Southeast 529 609 37,000  Level FlightAware ADS-B
Mon 08:09:04 AM 54.8200 11.9690 134° Southeast 518 596 37,000  Level FlightAware ADS-B
Mon 08:09:44 AM 54.7670 12.0960 126° Southeast 515 593 37,000  Level FlightAware ADS-B
Mon 08:10:27 AM 54.7140 12.2420 122° Southeast 512 589 37,000  Level FlightAware ADS-B
Mon 08:11:18 AM 54.6560 12.4150 120° Southeast 509 586 37,000  Level FlightAware ADS-B
Mon 08:11:55 AM 54.6230 12.5290 117° Southeast 510 587 37,000  Level FlightAware ADS-B
Mon 08:12:39 AM 54.5660 12.7210 117° Southeast 512 589 37,000  Level FlightAware ADS-B
Mon 08:13:18 AM 54.5230 12.8640 117° Southeast 514 592 37,000  Level FlightAware ADS-B
Mon 08:14:02 AM 54.4740 13.0260 117° Southeast 513 590 37,000  Level FlightAware ADS-B
Mon 08:14:46 AM 54.4260 13.1850 117° Southeast 512 589 37,000  Level FlightAware ADS-B
Mon 08:15:26 AM 54.3810 13.3280 118° Southeast 516 594 37,000  Level FlightAware ADS-B
Mon 08:16:08 AM 54.3180 13.4630 129° Southeast 529 609 37,000  Level FlightAware ADS-B
Mon 08:16:51 AM 54.2350 13.5680 144° Southeast 534 615 37,000  Level FlightAware ADS-B
Mon 08:17:33 AM 54.1470 13.6670 147° Southeast 535 616 37,000  Level FlightAware ADS-B
Mon 08:18:16 AM 54.0600 13.7660 146° Southeast 535 616 37,000  Level FlightAware ADS-B
Mon 08:18:56 AM 53.9780 13.8580 147° Southeast 535 616 37,000  Level FlightAware ADS-B
Mon 08:19:40 AM 53.8880 13.9600 146° Southeast 535 616 37,000  Level FlightAware ADS-B
Mon 08:20:20 AM 53.8050 14.0540 146° Southeast 533 613 37,000  Level FlightAware ADS-B
Mon 08:21:04 AM 53.7140 14.1550 147° Southeast 532 612 37,000  Level FlightAware ADS-B
Mon 08:21:44 AM 53.6310 14.2480 146° Southeast 531 611 37,000  Level FlightAware ADS-B
Mon 08:22:29 AM 53.5410 14.3480 147° Southeast 530 610 37,000  Level FlightAware ADS-B
Mon 08:23:09 AM 53.4580 14.4390 147° Southeast 532 612 37,000  Level FlightAware ADS-B
Mon 08:23:44 AM 53.3880 14.5150 147° Southeast 531 611 37,000  Level FlightAware ADS-B
Mon 08:24:22 AM 53.3110 14.5990 147° Southeast 531 611 37,000  Level FlightAware ADS-B
Mon 08:25:08 AM 53.2140 14.7040 147° Southeast 528 608 37,000  Level FlightAware ADS-B
Mon 08:25:48 AM 53.1340 14.7930 146° Southeast 526 605 37,000  Level FlightAware ADS-B
Mon 08:26:32 AM 53.0440 14.8920 147° Southeast 526 605 37,000  Level FlightAware ADS-B
Mon 08:27:10 AM 52.9650 14.9780 147° Southeast 528 608 37,000  Level FlightAware ADS-B
Mon 08:27:56 AM 52.8720 15.0780 147° Southeast 527 606 37,000  Level FlightAware ADS-B
Mon 08:28:32 AM 52.7990 15.1570 147° Southeast 527 606 37,000  Level FlightAware ADS-B
Mon 08:29:11 AM 52.7220 15.2400 147° Southeast 527 606 37,000  Level FlightAware ADS-B
Mon 08:29:57 AM 52.6270 15.3420 147° Southeast 529 609 37,000  Level FlightAware ADS-B
Mon 08:30:29 AM 52.5620 15.4110 147° Southeast 530 610 37,000  Level FlightAware ADS-B
Mon 08:31:13 AM 52.4700 15.5080 147° Southeast 529 609 37,000  Level FlightAware ADS-B
Mon 08:31:55 AM 52.3840 15.5990 147° Southeast 527 606 37,000  Level FlightAware ADS-B
Mon 08:32:31 AM 52.3120 15.6750 147° Southeast 524 603 37,000  Level FlightAware ADS-B
Mon 08:33:05 AM 52.2440 15.7470 147° Southeast 524 603 37,000  Level FlightAware ADS-B
Mon 08:33:51 AM 52.1480 15.8470 147° Southeast 525 604 37,000  Level FlightAware ADS-B
Mon 08:34:29 AM 52.0700 15.9270 148° Southeast 522 601 37,000  Level FlightAware ADS-B
Mon 08:35:09 AM 51.9920 16.0080 147° Southeast 517 595 37,000  Level FlightAware ADS-B
Mon 08:35:51 AM 51.9060 16.0970 147° Southeast 516 594 37,000  Level FlightAware ADS-B
Mon 08:36:25 AM 51.8370 16.1680 148° Southeast 516 594 37,000  Level FlightAware ADS-B
Mon 08:37:09 AM 51.7520 16.2540 148° Southeast 518 596 37,000  Level FlightAware ADS-B
Mon 08:37:59 AM 51.6460 16.3610 148° Southeast 517 595 37,000  Level FlightAware ADS-B
Mon 08:38:40 AM 51.5670 16.4420 147° Southeast 516 594 37,000  Level FlightAware ADS-B
Mon 08:39:20 AM 51.4860 16.5240 148° Southeast 516 594 37,000  Level FlightAware ADS-B
Mon 08:39:57 AM 51.4120 16.5980 148° Southeast 517 595 37,000  Level FlightAware ADS-B
Mon 08:40:36 AM 51.3320 16.6770 148° Southeast 516 594 37,000  Level FlightAware ADS-B
Mon 08:41:14 AM 51.2550 16.7550 148° Southeast 517 595 37,000  Level FlightAware ADS-B
Mon 08:42:04 AM 51.1520 16.8560 148° Southeast 517 595 37,000  Level FlightAware ADS-B
Mon 08:42:44 AM 51.0720 16.9350 148° Southeast 517 595 37,000  Level FlightAware ADS-B
Mon 08:43:26 AM 50.9870 17.0180 148° Southeast 518 596 37,000  Level FlightAware ADS-B
Mon 08:44:10 AM 50.8980 17.1050 148° Southeast 517 595 37,000  Level FlightAware ADS-B
Mon 08:44:42 AM 50.8330 17.1690 148° Southeast 516 594 37,000  Level FlightAware ADS-B
Mon 08:45:26 AM 50.7430 17.2560 149° Southeast 517 595 37,000  Level FlightAware ADS-B
Mon 08:46:10 AM 50.6510 17.3440 149° Southeast 516 594 37,000  Level FlightAware ADS-B
Mon 08:46:42 AM 50.5860 17.4060 149° Southeast 517 595 37,000  Level FlightAware ADS-B
Mon 08:47:22 AM 50.5070 17.4820 149° Southeast 515 593 37,000  Level FlightAware ADS-B
Mon 08:48:07 AM 50.4170 17.5680 149° Southeast 517 595 37,000  Level FlightAware ADS-B
Mon 08:48:46 AM 50.3360 17.6450 149° Southeast 519 597 37,000  Level FlightAware ADS-B
Mon 08:49:30 AM 50.2460 17.7290 149° Southeast 518 596 37,000  Level FlightAware ADS-B
Mon 08:50:10 AM 50.1630 17.8080 149° Southeast 518 596 37,000  Level FlightAware ADS-B
Mon 08:50:55 AM 50.0730 17.8920 149° Southeast 516 594 37,000  Level FlightAware ADS-B
Mon 08:51:29 AM 50.0080 17.9570 147° Southeast 510 587 37,000  Level FlightAware ADS-B
Mon 08:52:10 AM 49.9330 18.0510 141° Southeast 507 583 37,000  Level FlightAware ADS-B
Mon 08:52:56 AM 49.8540 18.1670 137° Southeast 507 583 37,000  Level FlightAware ADS-B
Mon 08:53:28 AM 49.7980 18.2530 135° Southeast 507 583 37,000  Level FlightAware ADS-B
Mon 08:54:12 AM 49.7260 18.3610 136° Southeast 508 585 37,000  Level FlightAware ADS-B
Mon 08:54:53 AM 49.6600 18.4590 136° Southeast 508 585 37,000  Level FlightAware ADS-B
Mon 08:55:36 AM 49.5840 18.5720 136° Southeast 509 586 37,000  Level FlightAware ADS-B
Mon 08:56:18 AM 49.5140 18.6760 136° Southeast 510 587 37,000  Level FlightAware ADS-B
Mon 08:56:58 AM 49.4430 18.7810 136° Southeast 512 589 37,000  Level FlightAware ADS-B
Mon 08:57:42 AM 49.3660 18.8920 137° Southeast 508 585 37,000  Level FlightAware ADS-B
Mon 08:58:18 AM 49.3070 18.9790 136° Southeast 508 585 37,000  Level FlightAware ADS-B
Mon 08:58:57 AM 49.2410 19.0750 136° Southeast 507 583 37,000  Level FlightAware ADS-B
Mon 08:59:42 AM 49.1650 19.1850 137° Southeast 510 587 37,000  Level FlightAware ADS-B
Mon 09:00:18 AM 49.1020 19.2760 137° Southeast 510 587 37,000  Level FlightAware ADS-B
Mon 09:00:58 AM 49.0330 19.3750 137° Southeast 508 585 37,000  Level FlightAware ADS-B
Mon 09:01:38 AM 48.9650 19.4730 137° Southeast 508 585 37,000  Level FlightAware ADS-B
Mon 09:02:18 AM 48.9010 19.5650 137° Southeast 510 587 37,000  Level FlightAware ADS-B
Mon 09:03:04 AM 48.8200 19.6790 137° Southeast 510 587 37,000  Level FlightAware ADS-B
Mon 09:03:46 AM 48.7490 19.7810 137° Southeast 512 589 37,000  Level FlightAware ADS-B
Mon 09:04:26 AM 48.6790 19.8780 138° Southeast 508 585 37,000  Level FlightAware ADS-B
Mon 09:05:08 AM 48.6040 19.9830 137° Southeast 505 581 37,000  Level FlightAware ADS-B
Mon 09:05:47 AM 48.5380 20.0760 137° Southeast 503 579 37,000  Level FlightAware ADS-B
Mon 09:06:34 AM 48.4580 20.1870 137° Southeast 505 581 37,000  Level FlightAware ADS-B
Mon 09:07:14 AM 48.3890 20.2830 137° Southeast 508 585 37,000  Level FlightAware ADS-B
Mon 09:07:58 AM 48.3110 20.3890 138° Southeast 505 581 37,000  Level FlightAware ADS-B
Mon 09:08:38 AM 48.2320 20.4580 150° Southeast 501 577 37,000  Level FlightAware ADS-B
Mon 09:09:18 AM 48.1500 20.5230 152° Southeast 504 580 37,000  Level FlightAware ADS-B
Mon 09:10:04 AM 48.0580 20.6080 148° Southeast 505 581 37,000  Level FlightAware ADS-B
Mon 09:10:45 AM 47.9760 20.6870 147° Southeast 508 585 37,000  Level FlightAware ADS-B
Mon 09:11:28 AM 47.9160 20.7520 144° Southeast 509 586 37,000  Level FlightAware ADS-B
Mon 09:12:29 AM 47.8160 20.8630 143° Southeast 510 587 37,000  Level FlightAware ADS-B
Mon 09:13:07 AM 47.7180 20.9750 142° Southeast 509 586 37,000  Level FlightAware ADS-B
Mon 09:13:54 AM 47.6220 21.0860 142° Southeast 508 585 37,000  Level FlightAware ADS-B
Mon 09:14:42 AM 47.5340 21.1910 141° Southeast 506 582 37,000  Level FlightAware ADS-B
Mon 09:15:26 AM 47.4560 21.2900 139° Southeast 505 581 37,000  Level FlightAware ADS-B (KSBY)
Mon 09:16:04 AM 47.3890 21.3730 140° Southeast 503 579 37,000  Level FlightAware ADS-B (KSBY)
Mon 09:16:56 AM 47.2980 21.4850 140° Southeast 502 578 37,000  Level FlightAware ADS-B
Mon 09:17:40 AM 47.2300 21.5690 140° Southeast 502 578 37,000  Level FlightAware ADS-B
Mon 09:18:36 AM 47.1390 21.6840 139° Southeast 503 579 37,000  Level FlightAware ADS-B
Mon 09:19:13 AM 47.0840 21.7550 139° Southeast 503 579 37,000  Level FlightAware ADS-B
Mon 09:19:53 AM 46.9810 21.8750 142° Southeast 501 577 37,000  Level FlightAware ADS-B
Mon 09:20:38 AM 46.9010 21.9720 140° Southeast 499 574 37,000  Level FlightAware ADS-B
Mon 09:21:20 AM 46.8300 22.0590 140° Southeast 500 575 37,000  Level FlightAware ADS-B
Mon 09:22:04 AM 46.7490 22.1560 141° Southeast 500 575 37,000  Level FlightAware ADS-B
Mon 09:22:44 AM 46.6850 22.2330 140° Southeast 502 578 37,000  Level FlightAware ADS-B
Mon 09:23:24 AM 46.6060 22.3290 140° Southeast 504 580 37,000  Level FlightAware ADS-B
Mon 09:24:09 AM 46.5250 22.4240 141° Southeast 505 581 37,000  Level FlightAware ADS-B
Mon 09:24:44 AM 46.4600 22.5020 140° Southeast 505 581 37,000  Level FlightAware ADS-B
Mon 09:25:29 AM 46.3840 22.5920 141° Southeast 505 581 37,000  Level FlightAware ADS-B
Mon 09:26:09 AM 46.3080 22.6810 141° Southeast 502 578 37,000  Level FlightAware ADS-B
Mon 09:26:44 AM 46.2450 22.7560 141° Southeast 501 577 37,000  Level FlightAware ADS-B
Mon 09:27:24 AM 46.1740 22.8400 141° Southeast 501 577 37,000  Level FlightAware ADS-B
Mon 09:28:09 AM 46.0950 22.9400 139° Southeast 502 578 37,000  Level FlightAware ADS-B
Mon 09:28:39 AM 46.0450 23.0040 138° Southeast 502 578 37,000  Level FlightAware ADS-B
Mon 09:29:24 AM 45.9660 23.1050 138° Southeast 503 579 37,000  Level FlightAware ADS-B
Mon 09:30:05 AM 45.8960 23.1950 138° Southeast 501 577 37,000  Level FlightAware ADS-B
Mon 09:30:44 AM 45.8260 23.2860 138° Southeast 503 579 37,000  Level FlightAware ADS-B
Mon 09:31:29 AM 45.7480 23.3840 139° Southeast 503 579 37,000  Level FlightAware ADS-B
Mon 09:32:09 AM 45.6790 23.4730 138° Southeast 503 579 37,000  Level FlightAware ADS-B
Mon 09:33:11 AM 45.5820 23.5970 138° Southeast 503 579 37,000  Level FlightAware ADS-B
Mon 09:33:47 AM 45.5290 23.6650 138° Southeast 503 579 37,000  Level FlightAware ADS-B
Mon 09:34:31 AM 45.4380 23.7780 139° Southeast 506 582 37,000  Level FlightAware ADS-B
Mon 09:35:10 AM 45.3690 23.8640 139° Southeast 510 587 37,000  Level FlightAware ADS-B
Mon 09:36:09 AM 45.2750 23.9830 138° Southeast 510 587 37,000  Level FlightAware ADS-B
Mon 09:36:48 AM 45.1950 24.0810 139° Southeast 507 583 37,000  Level FlightAware ADS-B
Mon 09:37:36 AM 45.1090 24.1880 139° Southeast 507 583 37,000  Level FlightAware ADS-B
Mon 09:38:13 AM 45.0460 24.2650 139° Southeast 508 585 37,000  Level FlightAware ADS-B
Mon 09:38:58 AM 44.9640 24.3670 139° Southeast 506 582 37,000  Level FlightAware ADS-B
Mon 09:39:34 AM 44.9030 24.4410 139° Southeast 505 581 37,000  Level FlightAware ADS-B
Mon 09:40:18 AM 44.8260 24.5360 139° Southeast 504 580 37,000  Level FlightAware ADS-B
Mon 09:41:02 AM 44.7490 24.6300 139° Southeast 504 580 37,000  Level FlightAware ADS-B
Mon 09:41:44 AM 44.6740 24.7210 139° Southeast 506 582 37,000  Level FlightAware ADS-B
Mon 09:42:26 AM 44.5980 24.8120 140° Southeast 504 580 37,000  Level FlightAware ADS-B
Mon 09:43:11 AM 44.5220 24.9040 139° Southeast 503 579 37,000  Level FlightAware ADS-B
Mon 09:43:49 AM 44.4550 24.9840 140° Southeast 503 579 37,000  Level FlightAware ADS-B
Mon 09:44:30 AM 44.3800 25.0740 139° Southeast 504 580 37,000  Level FlightAware ADS-B
Mon 09:47:00 AM 44.1055 25.3973 140° Southeast  Level Estimated
Mon 09:47:36 AM 44.0790 25.4330 140° Southeast 502 578 37,000  Level FlightAware ADS-B
Mon 09:48:16 AM 43.9800 25.5480 140° Southeast 499 574 37,000  Level FlightAware ADS-B
Mon 09:48:54 AM 43.9100 25.6300 140° Southeast 497 572 37,000  Level FlightAware ADS-B
Mon 09:49:36 AM 43.8340 25.7190 140° Southeast 496 571 37,000  Level FlightAware ADS-B
Mon 09:50:21 AM 43.7600 25.8090 139° Southeast 499 574 37,000  Level FlightAware ADS-B
Mon 09:51:03 AM 43.6990 25.9150 128° Southeast 509 586 37,000  Level FlightAware ADS-B
Mon 09:51:47 AM 43.6360 26.0340 126° Southeast 509 586 37,000  Level FlightAware ADS-B
Mon 09:52:27 AM 43.5930 26.1150 126° Southeast 511 588 37,000  Level FlightAware ADS-B
Mon 09:53:03 AM 43.5350 26.2230 127° Southeast 514 592 37,000  Level FlightAware ADS-B
Mon 09:53:53 AM 43.4670 26.3500 126° Southeast 515 593 37,000  Level FlightAware ADS-B
Mon 09:54:33 AM 43.4110 26.4550 126° Southeast 514 592 37,000  Level FlightAware ADS-B
Mon 09:55:15 AM 43.3500 26.5690 126° Southeast 514 592 37,000  Level FlightAware ADS-B
Mon 09:55:56 AM 43.2980 26.6660 126° Southeast 512 589 37,000  Level FlightAware ADS-B
Mon 09:56:39 AM 43.2260 26.7990 127° Southeast 514 592 37,000  Level FlightAware ADS-B
Mon 09:57:44 AM 43.1340 26.9660 127° Southeast 516 594 37,000  Level FlightAware ADS-B
Mon 09:58:19 AM 43.0870 27.0520 127° Southeast 514 592 37,000  Level FlightAware ADS-B
Mon 09:59:05 AM 43.0180 27.1740 128° Southeast 516 594 37,000  Level FlightAware ADS-B
Mon 09:59:44 AM 42.9580 27.2770 128° Southeast 510 587 37,000  Level FlightAware ADS-B
Mon 10:01:39 AM 42.8260 27.5060 128° Southeast 514 592 37,000  Level FlightAware ADS-B
Mon 10:02:27 AM 42.7440 27.6470 128° Southeast 515 593 37,000  Level FlightAware ADS-B
Mon 10:03:05 AM 42.6680 27.7790 128° Southeast 516 594 37,000  Level FlightAware ADS-B
Mon 10:03:51 AM 42.6040 27.8890 128° Southeast 518 596 37,000 -125 Level FlightAware ADS-B
Mon 10:04:41 AM 42.5300 28.0150 129° Southeast 521 600 36,800 -774 Descending FlightAware ADS-B
Mon 10:05:24 AM 42.4660 28.1230 129° Southeast 520 598 35,800 -2,138 Descending FlightAware ADS-B
Mon 10:06:08 AM 42.3970 28.2400 129° Southeast 518 596 33,700 -2,901 Descending FlightAware ADS-B
Mon 10:06:55 AM 42.3260 28.3600 129° Southeast 520 598 31,400 -1,923 Descending FlightAware ADS-B
Mon 10:07:26 AM 42.2880 28.4240 129° Southeast 519 597 31,200 -2,368 Descending FlightAware ADS-B
Mon 10:08:11 AM 42.2080 28.5560 129° Southeast 493 567 28,400 -2,727 Descending FlightAware ADS-B
Mon 10:09:05 AM 42.1370 28.6760 129° Southeast 470 541 26,700 -2,090 Descending FlightAware ADS-B
Mon 10:09:40 AM 42.0760 28.7480 139° Southeast 437 503 25,300 -2,262 Descending FlightAware ADS-B
Mon 10:10:06 AM 42.0270 28.7680 163° South 426 490 24,400 -2,143 Descending FlightAware ADS-B
Mon 10:10:50 AM 41.9470 28.7720 178° South 406 467 22,800 -2,554 Descending FlightAware ADS-B
Mon 10:11:47 AM 41.8420 28.7750 179° South 415 478 20,100 -2,640 Descending FlightAware ADS-B
Mon 10:12:55 AM 41.7070 28.7550 186° South 388 447 17,300 -2,488 Descending FlightAware ADS-B
Mon 10:13:50 AM 41.6200 28.7010 205° Southwest 395 455 15,000 -1,657 Descending FlightAware ADS-B
Mon 10:14:40 AM 41.5450 28.6540 205° Southwest 388 447 14,400 -581 Descending FlightAware ADS-B
Mon 10:14:52 AM 41.5290 28.6440 205° Southwest 388 447 14,400 -1,789 Level FlightAware ADS-B
Mon 10:16:34 AM 41.3780 28.6200 187° South 353 406 11,000 -1,655 Descending FlightAware ADS-B
Mon 10:17:17 AM 41.3110 28.6260 176° South 322 371 10,400 -1,031 Descending FlightAware ADS-B
Mon 10:17:38 AM 41.2560 28.6300 177° South 308 354 9,900 -1,294 Descending FlightAware ADS-B
Mon 10:18:08 AM 41.2180 28.6320 178° South 289 333 9,300 -2,100 Descending FlightAware ADS-B
Mon 10:18:38 AM 41.1730 28.6350 177° South 287 330 7,800 -2,700 Descending FlightAware ADS-B
Mon 10:19:08 AM 41.1360 28.6380 177° South 274 315 6,600 -1,672 Descending FlightAware ADS-B
Mon 10:19:39 AM 41.0950 28.6410 177° South 256 295 6,100 -764 Descending FlightAware ADS-B
Mon 10:20:03 AM 41.0690 28.6430 177° South 246 283 5,900 -778 Descending FlightAware ADS-B
Mon 10:20:33 AM 41.0340 28.6450 178° South 243 280 5,400 -1,200 Descending FlightAware ADS-B
Mon 10:21:03 AM 40.9990 28.6290 199° South 250 288 4,700 -1,309 Descending FlightAware ADS-B
Mon 10:21:28 AM 40.9830 28.5950 238° Southwest 254 292 4,200 -1,200 Descending FlightAware ADS-B
Mon 10:21:53 AM 40.9690 28.5660 237° Southwest 259 298 3,700 -943 Descending FlightAware ADS-B
Mon 10:22:38 AM 40.9430 28.5070 240° Southwest 255 293 3,100 -506 Descending FlightAware ADS-B
Mon 10:23:16 AM 40.9190 28.4560 238° Southwest 257 296 3,000  Descending FlightAware ADS-B
Mon 10:24:53 AM 40.8360 28.4150 78° East 3,100 47 Climbing FlightAware ADS-B
Mon 10:25:00 AM 40.9702 28.7786 78° East  Level Estimated
Mon 10:25:23 AM 40.8310 28.4570 99° East 222 255 3,100  Level FlightAware ADS-B
Mon 10:25:53 AM 40.8270 28.4920 99° East 224 258 3,100  Level FlightAware ADS-B
Mon 10:27:23 AM 40.8660 28.5960 64° Northeast 172 198 3,100  Level FlightAware ADS-B
Mon 10:28:06 AM 40.8820 28.6310 59° Northeast 167 192 3,100 -375 Level FlightAware ADS-B
Mon 10:28:43 AM 40.8990 28.6670 58° Northeast 167 192 2,600 -822 Descending FlightAware ADS-B
Mon 10:29:19 AM 40.9140 28.6980 57° Northeast 164 189 2,100 -764 Descending FlightAware ADS-B
Mon 10:29:38 AM 40.9200 28.7120 60° Northeast 160 184 1,900 -507 Descending FlightAware ADS-B
Mon 10:30:30 AM 40.9390 28.7520 58° Northeast 160 184 1,500 -764 Descending FlightAware ADS-B
Mon 10:31:28 AM 40.9570 28.7910 59° Northeast 130 150 500 -698 Descending FlightAware ADS-B
Mon 10:31:56 AM 40.9640 28.8070 60° Northeast 130 150 500  Level FlightAware ADS-B
Mon 10:34:00 AM 40.9667 28.8000 180° South  Level FlightAware Approximate
Mon 10:34:20 AM 40.9750 28.8260 180° South 20 23  Level FlightAware ADS-B
Mon 10:37:00 AM 40.9769 28.8211 180° South  Level Estimated
Mon 10:38:00 AM 40.9769 28.8211 180° South  Level Estimated
Mon 10:38:44 AM 40.9760 28.8150 180° South 1 1  Level FlightAware ADS-B
Mon 10:41:00 AM 40.9769 28.8211 180° South  Level Estimated
Mon 10:42:00 AM 40.9769 28.8211 180° South  Level Estimated
Mon 10:43:00 AM 40.9769 28.8211 180° South  Level Estimated
Mon 10:44:00 AM 40.9769 28.8211 180° South  Level Estimated
Mon 10:45:00 AM 40.9769 28.8211 180° South  Level Estimated
Mon 10:46:00 AM 40.9769 28.8211 180° South  Level Estimated
Mon 10:47:00 AM 40.9769 28.8211 180° South  Level Estimated
Mon 10:48:00 AM 40.9769 28.8211 180° South  Level Estimated
Mon 10:49:00 AM 40.9769 28.8211 180° South  Level Estimated
Mon 10:50:00 AM 40.9769 28.8211 180° South  Level Estimated
Mon 10:51:00 AM 40.9769 28.8211 180° South  Level Estimated
Mon 10:52:00 AM 40.9769 28.8211 180° South  Level Estimated
Mon 10:53:00 AM 40.9769 28.8211 180° South  Level Estimated
Mon 10:54:00 AM 40.9769 28.8211 180° South  Level Estimated
Mon 10:55:00 AM 40.9769 28.8211 180° South  Level Estimated
Mon 10:56:00 AM 40.9769 28.8211 180° South  Level Estimated
Mon 10:57:00 AM 40.9769 28.8211 180° South  Level Estimated
Mon 10:58:00 AM 40.9769 28.8211 180° South  Level Estimated
Mon 10:59:00 AM 40.9769 28.8211 180° South  Level Estimated
Mon 11:00:00 AM 40.9769 28.8211 180° South  Level Estimated
Mon 11:01:00 AM 40.9769 28.8211 180° South  Level Estimated
Mon 11:02:00 AM 40.9769 28.8211 180° South  Level Estimated
Mon 11:03:00 AM 40.9769 28.8211 180° South  Level Estimated
Mon 11:04:00 AM 40.9769 28.8211 180° South  Level Estimated
Mon 11:05:00 AM 40.9769 28.8211 180° South  Level Estimated
Mon 11:06:00 AM 40.9769 28.8211 180° South  Level Estimated
Mon 11:07:00 AM 40.9769 28.8211 180° South  Level Estimated
Mon 11:08:00 AM 40.9769 28.8211 180° South  Level Estimated
Mon 11:09:00 AM 40.9769 28.8211 180° South  Level Estimated
Mon 11:10:00 AM 40.9769 28.8211 180° South  Level Estimated
Mon 11:11:00 AM 40.9769 28.8211 180° South  Level Estimated
Mon 11:12:00 AM 40.9769 28.8211 180° South  Level Estimated
Mon 11:13:00 AM 40.9769 28.8211 180° South  Level Estimated
Mon 11:14:00 AM 40.9769 28.8211 180° South  Level Estimated
Mon 11:15:00 AM 40.9769 28.8211 180° South  Level Estimated
Mon 11:16:00 AM 40.9769 28.8211 180° South  Level Estimated
Mon 11:17:00 AM 40.9769 28.8211 180° South  Level Estimated
Mon 11:18:00 AM 40.9769 28.8211 180° South  Level Estimated

Login

Don't have an account? Register now (free) for customized features, flight alerts, and more!